MSR982 KIAD-HECA
Flight info
| Callsign | MSR982 |
|---|---|
| Flight time | 10h 26m |
| Altitude | 37000 |
| Route | JCOBY4 SWANN DCT BROSS Q419 RBV Q22 FOXWD DCT TUSKY N501B ALLRY/M085F390 NATY XETBO DCT ARKIL/N0482F390 DCT LIZAD DCT JSY DCT TURDU DCT TADUP DCT TEPRI DCT POGZI DCT GELTA/N0489F410 DCT LUVAL DCT BEGAR DCT TRA DCT GAMSA DCT GEDSO DCT VEKEN DCT MAVAR DCT BITLA DCT SIGFO DCT RIPLI DCT GUDIS DCT KUMBI L612 BLT A16 CVO |
| Aircraft | A359/H-SDE2E3GHIJ1J3J4J5LM1ORWXY/LB1D1 |
Departure
| Time | 2026-05-06 22:29 |
|---|---|
| Airport | Washington Dulles International Airport (KIAD) |
Arrival
| Time | 2026-05-07 08:55 |
|---|---|
| Airport | Cairo International Airport (HECA) |
| Time | Latitude | Longitude | Altitude | Speed | Heading |
|---|---|---|---|---|---|
| 2026-05-06 21:46 | 38.94932 | -77.44837 | 299 ft | 0 kts | 199° |
| 2026-05-06 22:11 | 38.94934 | -77.44837 | 303 ft | 2 kts | 199° |
| 2026-05-06 22:11 | 38.94950 | -77.44830 | 302 ft | 2 kts | 199° |
| 2026-05-06 22:12 | 38.94965 | -77.44823 | 300 ft | 2 kts | 200° |
| 2026-05-06 22:12 | 38.94981 | -77.44815 | 301 ft | 2 kts | 202° |
| 2026-05-06 22:12 | 38.94996 | -77.44807 | 300 ft | 2 kts | 199° |
| 2026-05-06 22:12 | 38.95012 | -77.44804 | 300 ft | 2 kts | 166° |
| 2026-05-06 22:13 | 38.95026 | -77.44815 | 300 ft | 2 kts | 108° |
| 2026-05-06 22:13 | 38.95028 | -77.44824 | 300 ft | 0 kts | 92° |
| 2026-05-06 22:16 | 38.95026 | -77.44794 | 300 ft | 7 kts | 95° |
| 2026-05-06 22:16 | 38.95022 | -77.44705 | 298 ft | 13 kts | 88° |
| 2026-05-06 22:16 | 38.95025 | -77.44561 | 298 ft | 19 kts | 90° |
| 2026-05-06 22:17 | 38.95024 | -77.44382 | 298 ft | 20 kts | 91° |
| 2026-05-06 22:17 | 38.95022 | -77.44200 | 298 ft | 20 kts | 90° |
| 2026-05-06 22:17 | 38.95023 | -77.44032 | 298 ft | 10 kts | 79° |
| 2026-05-06 22:17 | 38.95070 | -77.43973 | 303 ft | 10 kts | 18° |
| 2026-05-06 22:18 | 38.95141 | -77.43970 | 302 ft | 11 kts | 0° |
| 2026-05-06 22:18 | 38.95199 | -77.43970 | 300 ft | 0 kts | 0° |
| 2026-05-06 22:19 | 38.95214 | -77.43970 | 301 ft | 7 kts | 0° |
| 2026-05-06 22:19 | 38.95307 | -77.43970 | 300 ft | 19 kts | 0° |
| 2026-05-06 22:19 | 38.95455 | -77.43966 | 303 ft | 17 kts | 11° |
| 2026-05-06 22:19 | 38.95486 | -77.43859 | 300 ft | 11 kts | 90° |
| 2026-05-06 22:20 | 38.95485 | -77.43852 | 300 ft | 0 kts | 90° |
| 2026-05-06 22:20 | 38.95485 | -77.43851 | 300 ft | 0 kts | 90° |
| 2026-05-06 22:20 | 38.95485 | -77.43827 | 299 ft | 5 kts | 90° |
| 2026-05-06 22:21 | 38.95485 | -77.43785 | 300 ft | 5 kts | 90° |
| 2026-05-06 22:21 | 38.95485 | -77.43756 | 300 ft | 5 kts | 90° |
| 2026-05-06 22:21 | 38.95485 | -77.43754 | 300 ft | 0 kts | 90° |
| 2026-05-06 22:27 | 38.95485 | -77.43741 | 301 ft | 6 kts | 90° |
| 2026-05-06 22:28 | 38.95481 | -77.43652 | 305 ft | 13 kts | 104° |
| 2026-05-06 22:28 | 38.95420 | -77.43603 | 306 ft | 11 kts | 173° |
| 2026-05-06 22:28 | 38.94861 | -77.43610 | 305 ft | 90 kts | 181° |
| 2026-05-06 22:29 | 38.94064 | -77.43621 | 309 ft | 138 kts | 181° |
| 2026-05-06 22:29 | 38.92996 | -77.43632 | 569 ft | 157 kts | 181° |
| 2026-05-06 22:29 | 38.91934 | -77.43767 | 1106 ft | 154 kts | 199° |
| 2026-05-06 22:29 | 38.91073 | -77.44528 | 1677 ft | 151 kts | 225° |
| 2026-05-06 22:30 | 38.90322 | -77.45567 | 1922 ft | 167 kts | 229° |
| 2026-05-06 22:30 | 38.89524 | -77.46763 | 2104 ft | 187 kts | 230° |
| 2026-05-06 22:30 | 38.88619 | -77.48111 | 2287 ft | 209 kts | 229° |
| 2026-05-06 22:30 | 38.87638 | -77.49593 | 2538 ft | 228 kts | 230° |
| 2026-05-06 22:31 | 38.86584 | -77.51188 | 2956 ft | 237 kts | 230° |
| 2026-05-06 22:31 | 38.85543 | -77.52800 | 3566 ft | 238 kts | 234° |
| 2026-05-06 22:31 | 38.84930 | -77.54793 | 4174 ft | 243 kts | 261° |
| 2026-05-06 22:31 | 38.85153 | -77.56934 | 4708 ft | 254 kts | 288° |
| 2026-05-06 22:32 | 38.86213 | -77.58796 | 5280 ft | 267 kts | 315° |
| 2026-05-06 22:32 | 38.87869 | -77.59930 | 5907 ft | 277 kts | 335° |
| 2026-05-06 22:32 | 38.89713 | -77.60621 | 6512 ft | 283 kts | 342° |
| 2026-05-06 22:32 | 38.91747 | -77.60813 | 7180 ft | 291 kts | 357° |
| 2026-05-06 22:33 | 38.93779 | -77.60658 | 7864 ft | 294 kts | 359° |
| 2026-05-06 22:33 | 38.95831 | -77.60441 | 8532 ft | 297 kts | 359° |
| 2026-05-06 22:33 | 38.97899 | -77.60197 | 9209 ft | 300 kts | 359° |
| 2026-05-06 22:33 | 38.99980 | -77.59942 | 9929 ft | 300 kts | 359° |
| 2026-05-06 22:34 | 39.02044 | -77.59686 | 10390 ft | 309 kts | 359° |
| 2026-05-06 22:34 | 39.04272 | -77.59414 | 10655 ft | 325 kts | 359° |
| 2026-05-06 22:34 | 39.06546 | -77.58997 | 10876 ft | 346 kts | 9° |
| 2026-05-06 22:34 | 39.08826 | -77.57732 | 11094 ft | 371 kts | 31° |
| 2026-05-06 22:35 | 39.10685 | -77.55337 | 11298 ft | 393 kts | 54° |
| 2026-05-06 22:35 | 39.11906 | -77.52107 | 11564 ft | 406 kts | 68° |
| 2026-05-06 22:35 | 39.12825 | -77.48646 | 12024 ft | 413 kts | 73° |
| 2026-05-06 22:35 | 39.13486 | -77.45031 | 12452 ft | 418 kts | 80° |
| 2026-05-06 22:36 | 39.14125 | -77.41351 | 12922 ft | 423 kts | 73° |
| 2026-05-06 22:36 | 39.15042 | -77.37741 | 13421 ft | 426 kts | 70° |
| 2026-05-06 22:36 | 39.15841 | -77.34039 | 13868 ft | 430 kts | 79° |
| 2026-05-06 22:36 | 39.16020 | -77.30198 | 14277 ft | 433 kts | 96° |
| 2026-05-06 22:37 | 39.15453 | -77.26393 | 14740 ft | 432 kts | 107° |
| 2026-05-06 22:37 | 39.14706 | -77.22627 | 15187 ft | 436 kts | 107° |
| 2026-05-06 22:37 | 39.13987 | -77.18832 | 15641 ft | 439 kts | 106° |
| 2026-05-06 22:37 | 39.13306 | -77.15035 | 16092 ft | 442 kts | 105° |
| 2026-05-06 22:38 | 39.12663 | -77.11144 | 16566 ft | 446 kts | 104° |
| 2026-05-06 22:38 | 39.12034 | -77.07230 | 17062 ft | 448 kts | 104° |
| 2026-05-06 22:38 | 39.11401 | -77.03277 | 17562 ft | 451 kts | 104° |
| 2026-05-06 22:38 | 39.10836 | -76.99299 | 18053 ft | 457 kts | 98° |
| 2026-05-06 22:39 | 39.10748 | -76.95195 | 18461 ft | 461 kts | 89° |
| 2026-05-06 22:39 | 39.10863 | -76.91043 | 18852 ft | 465 kts | 89° |
| 2026-05-06 22:39 | 39.10988 | -76.86871 | 19255 ft | 468 kts | 89° |
| 2026-05-06 22:39 | 39.11093 | -76.83140 | 19603 ft | 470 kts | 89° |
| 2026-05-06 22:40 | 39.11204 | -76.78931 | 20001 ft | 473 kts | 89° |
| 2026-05-06 22:40 | 39.11312 | -76.74674 | 20384 ft | 477 kts | 89° |
| 2026-05-06 22:40 | 39.11415 | -76.70464 | 20788 ft | 479 kts | 90° |
| 2026-05-06 22:40 | 39.11521 | -76.66106 | 21193 ft | 482 kts | 90° |
| 2026-05-06 22:41 | 39.11723 | -76.57466 | 21992 ft | 489 kts | 90° |
| 2026-05-06 22:41 | 39.11845 | -76.53075 | 22423 ft | 492 kts | 88° |
| 2026-05-06 22:41 | 39.12223 | -76.48684 | 22851 ft | 496 kts | 83° |
| 2026-05-06 22:42 | 39.12721 | -76.44291 | 23266 ft | 500 kts | 82° |
| 2026-05-06 22:42 | 39.13236 | -76.39826 | 23654 ft | 503 kts | 82° |
| 2026-05-06 22:42 | 39.13746 | -76.35359 | 24051 ft | 505 kts | 82° |
| 2026-05-06 22:42 | 39.14253 | -76.30882 | 24466 ft | 507 kts | 82° |
| 2026-05-06 22:43 | 39.14757 | -76.26397 | 24828 ft | 510 kts | 82° |
| 2026-05-06 22:43 | 39.15266 | -76.21849 | 25208 ft | 512 kts | 82° |
| 2026-05-06 22:43 | 39.15786 | -76.17319 | 25619 ft | 514 kts | 82° |
| 2026-05-06 22:43 | 39.16316 | -76.12726 | 26006 ft | 516 kts | 82° |
| 2026-05-06 22:44 | 39.16843 | -76.08150 | 26353 ft | 519 kts | 81° |
| 2026-05-06 22:44 | 39.17373 | -76.03536 | 26708 ft | 521 kts | 81° |
| 2026-05-06 22:44 | 39.17902 | -75.98923 | 27099 ft | 523 kts | 81° |
| 2026-05-06 22:44 | 39.18669 | -75.94330 | 27448 ft | 525 kts | 72° |
| 2026-05-06 22:45 | 39.19985 | -75.89923 | 27770 ft | 525 kts | 61° |
| 2026-05-06 22:45 | 39.21870 | -75.85917 | 28113 ft | 523 kts | 50° |
| 2026-05-06 22:45 | 39.24289 | -75.82436 | 28479 ft | 519 kts | 39° |
| 2026-05-06 22:45 | 39.26958 | -75.79302 | 28828 ft | 520 kts | 37° |
| 2026-05-06 22:46 | 39.29709 | -75.76270 | 29154 ft | 521 kts | 36° |
| 2026-05-06 22:46 | 39.32506 | -75.73267 | 29470 ft | 523 kts | 35° |
| 2026-05-06 22:46 | 39.35306 | -75.70275 | 29835 ft | 524 kts | 35° |
| 2026-05-06 22:46 | 39.38109 | -75.67262 | 30092 ft | 526 kts | 35° |
| 2026-05-06 22:47 | 39.40874 | -75.64265 | 30369 ft | 527 kts | 35° |
| 2026-05-06 22:47 | 39.43674 | -75.61204 | 30766 ft | 526 kts | 35° |
| 2026-05-06 22:47 | 39.46454 | -75.58148 | 31209 ft | 523 kts | 35° |
| 2026-05-06 22:47 | 39.49178 | -75.55142 | 31616 ft | 521 kts | 34° |
| 2026-05-06 22:48 | 39.51963 | -75.52065 | 31980 ft | 519 kts | 34° |
| 2026-05-06 22:48 | 39.54709 | -75.49028 | 32343 ft | 518 kts | 34° |
| 2026-05-06 22:48 | 39.57397 | -75.46054 | 32763 ft | 515 kts | 34° |
| 2026-05-06 22:48 | 39.60112 | -75.43046 | 33161 ft | 512 kts | 33° |
| 2026-05-06 22:49 | 39.62816 | -75.40052 | 33530 ft | 510 kts | 33° |
| 2026-05-06 22:49 | 39.65510 | -75.37071 | 33891 ft | 508 kts | 33° |
| 2026-05-06 22:49 | 39.68192 | -75.34094 | 34188 ft | 506 kts | 33° |
| 2026-05-06 22:49 | 39.70862 | -75.31125 | 34438 ft | 506 kts | 33° |
| 2026-05-06 22:50 | 39.73537 | -75.28149 | 34666 ft | 506 kts | 33° |
| 2026-05-06 22:50 | 39.76208 | -75.25174 | 34899 ft | 506 kts | 33° |
| 2026-05-06 22:50 | 39.81387 | -75.18539 | 35380 ft | 511 kts | 41° |
| 2026-05-06 22:51 | 39.83717 | -75.15162 | 35591 ft | 512 kts | 42° |
| 2026-05-06 22:51 | 39.86079 | -75.11670 | 35802 ft | 512 kts | 43° |
| 2026-05-06 22:51 | 39.88417 | -75.08182 | 36060 ft | 511 kts | 43° |
| 2026-05-06 22:51 | 39.90749 | -75.04688 | 36297 ft | 510 kts | 43° |
| 2026-05-06 22:52 | 39.93073 | -75.01205 | 36492 ft | 510 kts | 43° |
| 2026-05-06 22:52 | 39.95402 | -74.97714 | 36669 ft | 510 kts | 43° |
| 2026-05-06 22:52 | 39.97576 | -74.94034 | 36827 ft | 514 kts | 50° |
| 2026-05-06 22:53 | 40.01645 | -74.86289 | 36851 ft | 521 kts | 52° |
| 2026-05-06 22:53 | 40.05615 | -74.78467 | 36848 ft | 519 kts | 52° |
| 2026-05-06 22:54 | 40.09586 | -74.70601 | 36846 ft | 518 kts | 52° |
| 2026-05-06 22:54 | 40.13557 | -74.62749 | 36847 ft | 517 kts | 52° |
| 2026-05-06 22:55 | 40.17517 | -74.54918 | 36850 ft | 517 kts | 52° |
| 2026-05-06 22:55 | 40.22045 | -74.47748 | 36845 ft | 506 kts | 36° |
| 2026-05-06 22:56 | 40.27392 | -74.41772 | 36844 ft | 504 kts | 34° |
| 2026-05-06 22:56 | 40.32833 | -74.35995 | 36846 ft | 503 kts | 34° |
| 2026-05-06 22:57 | 40.38237 | -74.30261 | 36850 ft | 503 kts | 34° |
| 2026-05-06 22:57 | 40.43661 | -74.24457 | 36831 ft | 503 kts | 34° |
| 2026-05-06 22:58 | 40.49056 | -74.18650 | 36835 ft | 502 kts | 34° |
| 2026-05-06 22:58 | 40.54381 | -74.12905 | 36842 ft | 502 kts | 35° |
| 2026-05-06 22:59 | 40.59744 | -74.07118 | 36841 ft | 501 kts | 35° |
| 2026-05-06 22:59 | 40.65067 | -74.01347 | 36842 ft | 500 kts | 35° |
| 2026-05-06 23:00 | 40.70425 | -73.95526 | 36843 ft | 499 kts | 35° |
| 2026-05-06 23:00 | 40.75777 | -73.89702 | 36834 ft | 498 kts | 35° |
| 2026-05-06 23:01 | 40.81121 | -73.83877 | 36836 ft | 498 kts | 35° |
| 2026-05-06 23:01 | 40.86284 | -73.77732 | 36834 ft | 505 kts | 45° |
| 2026-05-06 23:02 | 40.90518 | -73.70379 | 36832 ft | 507 kts | 51° |
| 2026-05-06 23:02 | 40.94567 | -73.62745 | 36835 ft | 508 kts | 52° |
| 2026-05-06 23:03 | 40.98597 | -73.55057 | 36828 ft | 508 kts | 51° |
| 2026-05-06 23:03 | 41.02639 | -73.47372 | 36828 ft | 509 kts | 51° |
| 2026-05-06 23:04 | 41.06690 | -73.39683 | 36832 ft | 510 kts | 51° |
| 2026-05-06 23:04 | 41.10720 | -73.32020 | 36836 ft | 510 kts | 51° |
| 2026-05-06 23:05 | 41.14773 | -73.24292 | 36842 ft | 511 kts | 51° |
| 2026-05-06 23:05 | 41.18834 | -73.16529 | 36842 ft | 512 kts | 51° |
| 2026-05-06 23:06 | 41.22894 | -73.08749 | 36842 ft | 514 kts | 51° |
| 2026-05-06 23:06 | 41.26963 | -73.00930 | 36844 ft | 514 kts | 51° |
| 2026-05-06 23:07 | 41.30960 | -72.93102 | 36841 ft | 516 kts | 54° |
| 2026-05-06 23:07 | 41.34625 | -72.84889 | 36841 ft | 517 kts | 57° |
| 2026-05-06 23:08 | 41.38213 | -72.76588 | 36835 ft | 517 kts | 56° |
| 2026-05-06 23:08 | 41.41857 | -72.68306 | 36850 ft | 518 kts | 56° |
| 2026-05-06 23:09 | 41.45529 | -72.60054 | 36852 ft | 518 kts | 56° |
| 2026-05-06 23:09 | 41.49206 | -72.51795 | 36846 ft | 519 kts | 56° |
| 2026-05-06 23:10 | 41.52858 | -72.43564 | 36848 ft | 519 kts | 56° |
| 2026-05-06 23:10 | 41.56527 | -72.35265 | 36851 ft | 519 kts | 56° |
| 2026-05-06 23:11 | 41.60189 | -72.26958 | 36830 ft | 519 kts | 57° |
| 2026-05-06 23:11 | 41.63845 | -72.18640 | 36822 ft | 520 kts | 57° |
| 2026-05-06 23:12 | 41.67506 | -72.10291 | 36824 ft | 520 kts | 57° |
| 2026-05-06 23:12 | 41.71133 | -72.01993 | 36827 ft | 521 kts | 57° |
| 2026-05-06 23:13 | 41.74784 | -71.93620 | 36832 ft | 521 kts | 57° |
| 2026-05-06 23:13 | 41.78432 | -71.85226 | 36842 ft | 521 kts | 57° |
| 2026-05-06 23:14 | 41.82065 | -71.76808 | 36845 ft | 522 kts | 58° |
| 2026-05-06 23:14 | 41.85467 | -71.68261 | 36845 ft | 524 kts | 60° |
| 2026-05-06 23:15 | 41.88827 | -71.59578 | 36841 ft | 524 kts | 60° |
| 2026-05-06 23:15 | 41.92212 | -71.50910 | 36844 ft | 525 kts | 59° |
| 2026-05-06 23:16 | 41.95621 | -71.42232 | 36839 ft | 526 kts | 59° |
| 2026-05-06 23:16 | 41.99037 | -71.33532 | 36842 ft | 526 kts | 59° |
| 2026-05-06 23:17 | 42.02426 | -71.24873 | 36828 ft | 527 kts | 59° |
| 2026-05-06 23:17 | 42.05835 | -71.16134 | 36825 ft | 528 kts | 59° |
| 2026-05-06 23:18 | 42.09246 | -71.07360 | 36828 ft | 529 kts | 59° |
| 2026-05-06 23:18 | 42.12651 | -70.98576 | 36827 ft | 530 kts | 59° |
| 2026-05-06 23:19 | 42.16056 | -70.89765 | 36838 ft | 531 kts | 60° |
| 2026-05-06 23:19 | 42.19437 | -70.80988 | 36836 ft | 532 kts | 60° |
| 2026-05-06 23:20 | 42.22844 | -70.72118 | 36834 ft | 533 kts | 60° |
| 2026-05-06 23:20 | 42.26246 | -70.63232 | 36839 ft | 533 kts | 60° |
| 2026-05-06 23:21 | 42.29647 | -70.54323 | 36843 ft | 534 kts | 60° |
| 2026-05-06 23:21 | 42.33046 | -70.45391 | 36844 ft | 535 kts | 60° |
| 2026-05-06 23:22 | 42.36417 | -70.36505 | 36858 ft | 536 kts | 60° |
| 2026-05-06 23:22 | 42.39806 | -70.27543 | 36856 ft | 536 kts | 60° |
| 2026-05-06 23:23 | 42.43203 | -70.18531 | 36859 ft | 537 kts | 60° |
| 2026-05-06 23:23 | 42.46592 | -70.09513 | 36854 ft | 537 kts | 61° |
| 2026-05-06 23:24 | 42.49975 | -70.00481 | 36853 ft | 538 kts | 61° |
| 2026-05-06 23:24 | 42.53329 | -69.91499 | 36851 ft | 538 kts | 61° |
| 2026-05-06 23:25 | 42.56706 | -69.82426 | 36856 ft | 539 kts | 61° |
| 2026-05-06 23:25 | 42.60075 | -69.73345 | 36858 ft | 539 kts | 61° |
| 2026-05-06 23:26 | 42.63442 | -69.64240 | 36864 ft | 540 kts | 61° |
| 2026-05-06 23:26 | 42.66801 | -69.55127 | 36869 ft | 540 kts | 61° |
| 2026-05-06 23:27 | 42.70135 | -69.46054 | 36873 ft | 540 kts | 62° |
| 2026-05-06 23:27 | 42.73412 | -69.37109 | 36876 ft | 540 kts | 62° |
| 2026-05-06 23:28 | 42.76797 | -69.27835 | 36877 ft | 540 kts | 62° |
| 2026-05-06 23:28 | 42.80132 | -69.18671 | 36881 ft | 541 kts | 62° |
| 2026-05-06 23:29 | 42.83440 | -69.09551 | 36886 ft | 541 kts | 62° |
| 2026-05-06 23:29 | 42.86765 | -69.00354 | 36886 ft | 541 kts | 62° |
| 2026-05-06 23:30 | 42.90083 | -68.91145 | 36897 ft | 541 kts | 62° |
| 2026-05-06 23:30 | 42.93394 | -68.81927 | 36890 ft | 541 kts | 62° |
| 2026-05-06 23:31 | 42.96701 | -68.72687 | 36896 ft | 542 kts | 62° |
| 2026-05-06 23:31 | 42.99981 | -68.63486 | 36902 ft | 544 kts | 62° |
| 2026-05-06 23:32 | 43.03315 | -68.54120 | 36910 ft | 553 kts | 62° |
| 2026-05-06 23:32 | 43.06694 | -68.44595 | 36910 ft | 561 kts | 62° |
| 2026-05-06 23:33 | 43.09530 | -68.36570 | 36907 ft | 566 kts | 62° |
| 2026-05-06 23:33 | 43.12941 | -68.26874 | 36913 ft | 564 kts | 62° |
| 2026-05-06 23:34 | 43.16883 | -68.15630 | 36916 ft | 563 kts | 62° |
| 2026-05-06 23:34 | 43.20263 | -68.05958 | 36919 ft | 562 kts | 62° |
| 2026-05-06 23:35 | 43.23062 | -67.97922 | 36922 ft | 561 kts | 63° |
| 2026-05-06 23:35 | 43.26417 | -67.88260 | 36929 ft | 561 kts | 63° |
| 2026-05-06 23:36 | 43.30302 | -67.77029 | 36926 ft | 560 kts | 63° |
| 2026-05-06 23:36 | 43.33087 | -67.68947 | 36931 ft | 559 kts | 63° |
| 2026-05-06 23:37 | 43.36381 | -67.59359 | 36936 ft | 558 kts | 63° |
| 2026-05-06 23:37 | 43.39689 | -67.49698 | 36936 ft | 558 kts | 63° |
| 2026-05-06 23:38 | 43.42980 | -67.40047 | 36936 ft | 557 kts | 63° |
| 2026-05-06 23:38 | 43.46257 | -67.30408 | 36945 ft | 556 kts | 64° |
| 2026-05-06 23:39 | 43.49527 | -67.20753 | 36944 ft | 555 kts | 64° |
| 2026-05-06 23:39 | 43.52761 | -67.11171 | 36946 ft | 555 kts | 64° |
| 2026-05-06 23:40 | 43.56103 | -67.01606 | 36953 ft | 553 kts | 58° |
| 2026-05-06 23:40 | 43.60595 | -66.93084 | 36958 ft | 549 kts | 49° |
| 2026-05-06 23:41 | 43.65420 | -66.84927 | 36957 ft | 548 kts | 47° |
| 2026-05-06 23:41 | 43.70250 | -66.76870 | 36959 ft | 548 kts | 47° |
| 2026-05-06 23:42 | 43.75092 | -66.68732 | 36966 ft | 548 kts | 48° |
| 2026-05-06 23:42 | 43.79919 | -66.60558 | 36968 ft | 548 kts | 48° |
| 2026-05-06 23:43 | 43.84738 | -66.52363 | 36975 ft | 549 kts | 49° |
| 2026-05-06 23:43 | 43.89549 | -66.44158 | 36985 ft | 549 kts | 49° |
| 2026-05-06 23:44 | 43.94327 | -66.35990 | 36993 ft | 549 kts | 49° |
| 2026-05-06 23:44 | 43.99135 | -66.27748 | 36996 ft | 549 kts | 49° |
| 2026-05-06 23:45 | 44.03933 | -66.19498 | 36994 ft | 549 kts | 49° |
| 2026-05-06 23:45 | 44.08723 | -66.11239 | 36993 ft | 549 kts | 49° |
| 2026-05-06 23:46 | 44.13514 | -66.02956 | 36991 ft | 549 kts | 50° |
| 2026-05-06 23:46 | 44.18256 | -65.94732 | 36986 ft | 549 kts | 50° |
| 2026-05-06 23:47 | 44.23034 | -65.86423 | 36989 ft | 549 kts | 50° |
| 2026-05-06 23:47 | 44.27808 | -65.78097 | 36984 ft | 549 kts | 50° |
| 2026-05-06 23:48 | 44.32571 | -65.69766 | 36986 ft | 549 kts | 50° |
| 2026-05-06 23:48 | 44.37298 | -65.61473 | 36992 ft | 549 kts | 50° |
| 2026-05-06 23:49 | 44.42053 | -65.53109 | 36995 ft | 549 kts | 50° |
| 2026-05-06 23:49 | 44.46806 | -65.44723 | 36995 ft | 549 kts | 50° |
| 2026-05-06 23:50 | 44.51542 | -65.36342 | 36997 ft | 549 kts | 51° |
| 2026-05-06 23:50 | 44.58609 | -65.23790 | 36999 ft | 549 kts | 51° |
| 2026-05-06 23:51 | 44.63326 | -65.15381 | 37000 ft | 548 kts | 51° |
| 2026-05-06 23:51 | 44.68040 | -65.06954 | 36995 ft | 548 kts | 51° |
| 2026-05-06 23:52 | 44.72741 | -64.98525 | 36995 ft | 548 kts | 51° |
| 2026-05-06 23:52 | 44.77408 | -64.90130 | 36994 ft | 548 kts | 51° |
| 2026-05-06 23:53 | 44.82102 | -64.81664 | 36989 ft | 548 kts | 52° |
| 2026-05-06 23:53 | 44.86782 | -64.73199 | 36988 ft | 548 kts | 52° |
| 2026-05-06 23:54 | 44.91457 | -64.64716 | 36993 ft | 548 kts | 52° |
| 2026-05-06 23:54 | 44.96127 | -64.56217 | 36992 ft | 548 kts | 52° |
| 2026-05-06 23:55 | 45.00759 | -64.47762 | 36997 ft | 548 kts | 52° |
| 2026-05-06 23:55 | 45.05413 | -64.39241 | 36996 ft | 548 kts | 52° |
| 2026-05-06 23:56 | 45.10065 | -64.30701 | 36994 ft | 548 kts | 52° |
| 2026-05-06 23:56 | 45.14719 | -64.22132 | 36997 ft | 549 kts | 52° |
| 2026-05-06 23:57 | 45.19330 | -64.13613 | 37002 ft | 549 kts | 52° |
| 2026-05-06 23:57 | 45.23971 | -64.05014 | 37006 ft | 548 kts | 52° |
| 2026-05-06 23:58 | 45.28597 | -63.96418 | 37008 ft | 548 kts | 52° |
| 2026-05-06 23:58 | 45.33219 | -63.87802 | 37005 ft | 548 kts | 52° |
| 2026-05-06 23:59 | 45.37834 | -63.79174 | 37013 ft | 548 kts | 52° |
| 2026-05-06 23:59 | 45.42436 | -63.70543 | 37010 ft | 547 kts | 52° |
| 2026-05-07 00:00 | 45.46991 | -63.61976 | 37012 ft | 546 kts | 52° |
| 2026-05-07 00:00 | 45.51569 | -63.53337 | 37017 ft | 546 kts | 52° |
| 2026-05-07 00:01 | 45.56138 | -63.44691 | 37015 ft | 545 kts | 53° |
| 2026-05-07 00:01 | 45.60665 | -63.36098 | 37020 ft | 545 kts | 52° |
| 2026-05-07 00:02 | 45.65208 | -63.27446 | 37016 ft | 545 kts | 53° |
| 2026-05-07 00:02 | 45.69751 | -63.18770 | 37010 ft | 544 kts | 53° |
| 2026-05-07 00:03 | 45.74280 | -63.10094 | 37008 ft | 544 kts | 53° |
| 2026-05-07 00:03 | 45.78774 | -63.01457 | 37009 ft | 544 kts | 53° |
| 2026-05-07 00:04 | 45.83293 | -62.92748 | 37003 ft | 544 kts | 53° |
| 2026-05-07 00:04 | 45.87797 | -62.84039 | 37004 ft | 544 kts | 53° |
| 2026-05-07 00:05 | 45.92297 | -62.75310 | 36997 ft | 543 kts | 53° |
| 2026-05-07 00:05 | 45.96780 | -62.66589 | 36995 ft | 542 kts | 53° |
| 2026-05-07 00:06 | 46.01224 | -62.57918 | 36997 ft | 542 kts | 53° |
| 2026-05-07 00:06 | 46.05687 | -62.49181 | 37006 ft | 542 kts | 53° |
| 2026-05-07 00:07 | 46.10142 | -62.40432 | 37004 ft | 542 kts | 53° |
| 2026-05-07 00:07 | 46.14593 | -62.31664 | 37016 ft | 542 kts | 53° |
| 2026-05-07 00:08 | 46.19014 | -62.22928 | 37023 ft | 542 kts | 53° |
| 2026-05-07 00:08 | 46.23458 | -62.14119 | 37016 ft | 543 kts | 53° |
| 2026-05-07 00:09 | 46.27896 | -62.05295 | 37035 ft | 543 kts | 53° |
| 2026-05-07 00:09 | 46.32336 | -61.96436 | 37027 ft | 544 kts | 53° |
| 2026-05-07 00:10 | 46.36742 | -61.87621 | 37042 ft | 544 kts | 53° |
| 2026-05-07 00:10 | 46.41170 | -61.78733 | 37026 ft | 544 kts | 53° |
| 2026-05-07 00:11 | 46.45594 | -61.69824 | 37029 ft | 545 kts | 53° |
| 2026-05-07 00:11 | 46.50015 | -61.60892 | 37022 ft | 545 kts | 53° |
| 2026-05-07 00:12 | 46.54427 | -61.51951 | 37019 ft | 544 kts | 53° |
| 2026-05-07 00:12 | 46.58796 | -61.43068 | 37017 ft | 544 kts | 53° |
| 2026-05-07 00:13 | 46.63184 | -61.34118 | 37011 ft | 543 kts | 53° |
| 2026-05-07 00:13 | 46.67564 | -61.25156 | 37015 ft | 543 kts | 53° |
| 2026-05-07 00:14 | 46.71925 | -61.16203 | 37018 ft | 542 kts | 53° |
| 2026-05-07 00:14 | 46.76249 | -61.07298 | 37019 ft | 541 kts | 53° |
| 2026-05-07 00:15 | 46.80583 | -60.98344 | 37028 ft | 540 kts | 53° |
| 2026-05-07 00:15 | 46.84913 | -60.89368 | 37027 ft | 540 kts | 53° |
| 2026-05-07 00:16 | 46.89232 | -60.80388 | 37029 ft | 540 kts | 53° |
| 2026-05-07 00:16 | 46.93518 | -60.71446 | 37029 ft | 541 kts | 53° |
| 2026-05-07 00:17 | 46.97830 | -60.62421 | 37030 ft | 541 kts | 53° |
| 2026-05-07 00:17 | 47.02133 | -60.53388 | 37032 ft | 541 kts | 53° |
| 2026-05-07 00:18 | 47.06431 | -60.44332 | 37030 ft | 541 kts | 53° |
| 2026-05-07 00:18 | 47.10690 | -60.35332 | 37032 ft | 541 kts | 53° |
| 2026-05-07 00:19 | 47.14968 | -60.26260 | 37040 ft | 540 kts | 53° |
| 2026-05-07 00:19 | 47.19237 | -60.17179 | 37041 ft | 540 kts | 53° |
| 2026-05-07 00:20 | 47.23492 | -60.08097 | 37046 ft | 539 kts | 53° |
| 2026-05-07 00:20 | 47.27741 | -59.98997 | 37048 ft | 539 kts | 53° |
| 2026-05-07 00:21 | 47.31947 | -59.89960 | 37050 ft | 538 kts | 53° |
| 2026-05-07 00:21 | 47.36173 | -59.80850 | 37055 ft | 538 kts | 53° |
| 2026-05-07 00:22 | 47.40388 | -59.71735 | 37058 ft | 538 kts | 53° |
| 2026-05-07 00:22 | 47.44595 | -59.62606 | 37068 ft | 537 kts | 53° |
| 2026-05-07 00:23 | 47.48761 | -59.53536 | 37073 ft | 537 kts | 53° |
| 2026-05-07 00:23 | 47.52945 | -59.44396 | 37080 ft | 536 kts | 53° |
| 2026-05-07 00:24 | 47.57115 | -59.35258 | 37089 ft | 535 kts | 53° |
| 2026-05-07 00:24 | 47.61265 | -59.26131 | 37102 ft | 534 kts | 54° |
| 2026-05-07 00:25 | 47.65379 | -59.17054 | 37106 ft | 533 kts | 54° |
| 2026-05-07 00:25 | 47.69508 | -59.07913 | 37119 ft | 532 kts | 54° |
| 2026-05-07 00:26 | 47.73619 | -58.98783 | 37125 ft | 532 kts | 54° |
| 2026-05-07 00:26 | 47.77721 | -58.89642 | 37134 ft | 531 kts | 54° |
| 2026-05-07 00:27 | 47.81811 | -58.80496 | 37135 ft | 531 kts | 54° |
| 2026-05-07 00:27 | 47.85864 | -58.71403 | 37143 ft | 530 kts | 54° |
| 2026-05-07 00:28 | 47.89933 | -58.62244 | 37141 ft | 530 kts | 54° |
| 2026-05-07 00:28 | 47.93991 | -58.53078 | 37140 ft | 530 kts | 54° |
| 2026-05-07 00:29 | 47.98043 | -58.43898 | 37145 ft | 529 kts | 54° |
| 2026-05-07 00:30 | 48.06084 | -58.25582 | 37147 ft | 529 kts | 54° |
| 2026-05-07 00:30 | 48.10101 | -58.16386 | 37146 ft | 528 kts | 54° |
| 2026-05-07 00:31 | 48.14111 | -58.07175 | 37142 ft | 528 kts | 54° |
| 2026-05-07 00:31 | 48.18110 | -57.97959 | 37140 ft | 527 kts | 54° |
| 2026-05-07 00:32 | 48.22069 | -57.88802 | 37144 ft | 527 kts | 54° |
| 2026-05-07 00:32 | 48.26049 | -57.79567 | 37141 ft | 527 kts | 54° |
| 2026-05-07 00:33 | 48.30016 | -57.70329 | 37139 ft | 526 kts | 54° |
| 2026-05-07 00:33 | 48.33971 | -57.61088 | 37135 ft | 525 kts | 55° |
| 2026-05-07 00:34 | 48.37887 | -57.51907 | 37133 ft | 525 kts | 54° |
| 2026-05-07 00:34 | 48.41818 | -57.42656 | 37136 ft | 524 kts | 54° |
| 2026-05-07 00:35 | 48.45737 | -57.33404 | 37137 ft | 524 kts | 55° |
| 2026-05-07 00:35 | 48.49645 | -57.24149 | 37135 ft | 524 kts | 55° |
| 2026-05-07 00:36 | 48.53523 | -57.14932 | 37127 ft | 524 kts | 55° |
| 2026-05-07 00:36 | 48.57421 | -57.05637 | 37117 ft | 524 kts | 55° |
| 2026-05-07 00:37 | 48.61307 | -56.96336 | 37113 ft | 524 kts | 55° |
| 2026-05-07 00:37 | 48.65185 | -56.87021 | 37103 ft | 524 kts | 55° |
| 2026-05-07 00:38 | 48.69033 | -56.77747 | 37104 ft | 524 kts | 55° |
| 2026-05-07 00:38 | 48.72899 | -56.68399 | 37102 ft | 524 kts | 55° |
| 2026-05-07 00:39 | 48.76755 | -56.59040 | 37100 ft | 523 kts | 55° |
| 2026-05-07 00:39 | 48.80598 | -56.49681 | 37104 ft | 522 kts | 56° |
| 2026-05-07 00:40 | 48.84402 | -56.40383 | 37106 ft | 521 kts | 56° |
| 2026-05-07 00:40 | 48.88217 | -56.31026 | 37108 ft | 520 kts | 56° |
| 2026-05-07 00:41 | 48.92018 | -56.21672 | 37110 ft | 520 kts | 56° |
| 2026-05-07 00:41 | 48.95805 | -56.12318 | 37110 ft | 519 kts | 56° |
| 2026-05-07 00:42 | 48.99582 | -56.02957 | 37110 ft | 519 kts | 56° |
| 2026-05-07 00:42 | 49.03327 | -55.93644 | 37110 ft | 518 kts | 56° |
| 2026-05-07 00:43 | 49.07083 | -55.84268 | 37109 ft | 518 kts | 56° |
| 2026-05-07 00:43 | 49.10832 | -55.74877 | 37106 ft | 518 kts | 56° |
| 2026-05-07 00:44 | 49.14575 | -55.65469 | 37103 ft | 518 kts | 56° |
| 2026-05-07 00:44 | 49.18310 | -55.56050 | 37101 ft | 518 kts | 56° |
| 2026-05-07 00:45 | 49.22014 | -55.46671 | 37101 ft | 519 kts | 56° |
| 2026-05-07 00:45 | 49.25736 | -55.37217 | 37088 ft | 519 kts | 56° |
| 2026-05-07 00:46 | 49.29452 | -55.27741 | 37092 ft | 519 kts | 56° |
| 2026-05-07 00:46 | 49.33157 | -55.18259 | 37087 ft | 519 kts | 56° |
| 2026-05-07 00:47 | 49.36829 | -55.08828 | 37083 ft | 518 kts | 56° |
| 2026-05-07 00:47 | 49.40517 | -54.99323 | 37081 ft | 518 kts | 57° |
| 2026-05-07 00:48 | 49.44194 | -54.89811 | 37082 ft | 518 kts | 57° |
| 2026-05-07 00:48 | 49.47859 | -54.80296 | 37080 ft | 517 kts | 57° |
| 2026-05-07 00:49 | 49.51489 | -54.70837 | 37081 ft | 516 kts | 57° |
| 2026-05-07 00:49 | 49.55122 | -54.61337 | 37084 ft | 516 kts | 57° |
| 2026-05-07 00:50 | 49.58753 | -54.51806 | 37088 ft | 515 kts | 57° |
| 2026-05-07 00:50 | 49.62369 | -54.42282 | 37093 ft | 514 kts | 57° |
| 2026-05-07 00:51 | 49.65973 | -54.32754 | 37102 ft | 514 kts | 57° |
| 2026-05-07 00:51 | 49.69538 | -54.23293 | 37104 ft | 513 kts | 57° |
| 2026-05-07 00:52 | 49.73119 | -54.13758 | 37107 ft | 512 kts | 57° |
| 2026-05-07 00:52 | 49.76684 | -54.04231 | 37109 ft | 512 kts | 57° |
| 2026-05-07 00:53 | 49.80244 | -53.94680 | 37114 ft | 512 kts | 57° |
| 2026-05-07 00:53 | 49.83768 | -53.85192 | 37113 ft | 512 kts | 57° |
| 2026-05-07 00:54 | 49.87305 | -53.75634 | 37117 ft | 511 kts | 57° |
| 2026-05-07 00:54 | 49.90836 | -53.66057 | 37118 ft | 511 kts | 57° |
| 2026-05-07 00:55 | 49.94357 | -53.56472 | 37118 ft | 511 kts | 57° |
| 2026-05-07 00:55 | 49.97867 | -53.46879 | 37125 ft | 511 kts | 57° |
| 2026-05-07 00:56 | 50.01344 | -53.37344 | 37125 ft | 510 kts | 58° |
| 2026-05-07 00:56 | 50.04832 | -53.27740 | 37124 ft | 510 kts | 58° |
| 2026-05-07 00:57 | 50.08315 | -53.18116 | 37124 ft | 510 kts | 58° |
| 2026-05-07 00:57 | 50.11786 | -53.08489 | 37126 ft | 510 kts | 58° |
| 2026-05-07 00:58 | 50.15250 | -52.98846 | 37123 ft | 510 kts | 58° |
| 2026-05-07 00:58 | 50.18682 | -52.89256 | 37127 ft | 510 kts | 58° |
| 2026-05-07 00:59 | 50.23849 | -52.74750 | 37126 ft | 509 kts | 58° |
| 2026-05-07 01:00 | 50.27282 | -52.65065 | 37126 ft | 509 kts | 58° |
| 2026-05-07 01:00 | 50.30707 | -52.55368 | 37129 ft | 509 kts | 58° |
| 2026-05-07 01:01 | 50.34097 | -52.45731 | 37127 ft | 509 kts | 58° |
| 2026-05-07 01:01 | 50.37505 | -52.36008 | 37132 ft | 509 kts | 58° |
| 2026-05-07 01:02 | 50.40906 | -52.26269 | 37130 ft | 509 kts | 58° |
| 2026-05-07 01:02 | 50.44295 | -52.16526 | 37130 ft | 509 kts | 58° |
| 2026-05-07 01:03 | 50.47676 | -52.06769 | 37135 ft | 509 kts | 58° |
| 2026-05-07 01:03 | 50.50805 | -51.96859 | 37137 ft | 511 kts | 64° |
| 2026-05-07 01:04 | 50.53547 | -51.86548 | 37133 ft | 512 kts | 65° |
| 2026-05-07 01:04 | 50.56219 | -51.76193 | 37138 ft | 512 kts | 65° |
| 2026-05-07 01:05 | 50.58885 | -51.65804 | 37141 ft | 512 kts | 65° |
| 2026-05-07 01:05 | 50.61528 | -51.55495 | 37140 ft | 512 kts | 65° |
| 2026-05-07 01:06 | 50.64185 | -51.45102 | 37145 ft | 511 kts | 65° |
| 2026-05-07 01:06 | 50.66834 | -51.34691 | 37137 ft | 511 kts | 65° |
| 2026-05-07 01:07 | 50.69469 | -51.24289 | 37142 ft | 511 kts | 65° |
| 2026-05-07 01:07 | 50.72078 | -51.13941 | 37141 ft | 511 kts | 65° |
| 2026-05-07 01:08 | 50.74692 | -51.03524 | 37142 ft | 510 kts | 65° |
| 2026-05-07 01:08 | 50.77295 | -50.93103 | 37142 ft | 510 kts | 65° |
| 2026-05-07 01:09 | 50.79888 | -50.82672 | 37143 ft | 510 kts | 65° |
| 2026-05-07 01:09 | 50.82473 | -50.72227 | 37145 ft | 510 kts | 65° |
| 2026-05-07 01:10 | 50.85027 | -50.61855 | 37145 ft | 509 kts | 66° |
| 2026-05-07 01:10 | 50.87587 | -50.51413 | 37147 ft | 509 kts | 66° |
| 2026-05-07 01:11 | 50.90139 | -50.40951 | 37146 ft | 509 kts | 66° |
| 2026-05-07 01:11 | 50.92681 | -50.30483 | 37145 ft | 509 kts | 66° |
| 2026-05-07 01:12 | 50.95195 | -50.20079 | 37150 ft | 509 kts | 66° |
| 2026-05-07 01:12 | 50.97718 | -50.09589 | 37145 ft | 509 kts | 66° |
| 2026-05-07 01:13 | 51.00079 | -49.99007 | 37152 ft | 511 kts | 73° |
| 2026-05-07 01:13 | 51.01777 | -49.88052 | 37152 ft | 511 kts | 74° |
| 2026-05-07 01:14 | 51.03353 | -49.77046 | 37156 ft | 511 kts | 75° |
| 2026-05-07 01:14 | 51.04896 | -49.66109 | 37153 ft | 510 kts | 75° |
| 2026-05-07 01:15 | 51.06449 | -49.55101 | 37153 ft | 510 kts | 75° |
| 2026-05-07 01:15 | 51.07996 | -49.44114 | 37150 ft | 509 kts | 75° |
| 2026-05-07 01:16 | 51.09534 | -49.33113 | 37158 ft | 509 kts | 75° |
| 2026-05-07 01:16 | 51.11050 | -49.22185 | 37151 ft | 509 kts | 75° |
| 2026-05-07 01:17 | 51.12564 | -49.11192 | 37150 ft | 509 kts | 75° |
| 2026-05-07 01:17 | 51.14068 | -49.00189 | 37158 ft | 509 kts | 75° |
| 2026-05-07 01:18 | 51.15561 | -48.89182 | 37155 ft | 508 kts | 75° |
| 2026-05-07 01:18 | 51.17033 | -48.78245 | 37157 ft | 508 kts | 75° |
| 2026-05-07 01:19 | 51.18503 | -48.67243 | 37159 ft | 508 kts | 75° |
| 2026-05-07 01:19 | 51.19962 | -48.56234 | 37154 ft | 507 kts | 75° |
| 2026-05-07 01:20 | 51.21409 | -48.45233 | 37156 ft | 507 kts | 76° |
| 2026-05-07 01:20 | 51.22836 | -48.34303 | 37162 ft | 507 kts | 76° |
| 2026-05-07 01:21 | 51.24261 | -48.23302 | 37159 ft | 506 kts | 76° |
| 2026-05-07 01:21 | 51.25675 | -48.12295 | 37156 ft | 506 kts | 76° |
| 2026-05-07 01:22 | 51.27078 | -48.01292 | 37158 ft | 506 kts | 76° |
| 2026-05-07 01:22 | 51.28470 | -47.90282 | 37170 ft | 506 kts | 76° |
| 2026-05-07 01:23 | 51.29843 | -47.79344 | 37167 ft | 505 kts | 76° |
| 2026-05-07 01:23 | 51.31212 | -47.68341 | 37172 ft | 505 kts | 76° |
| 2026-05-07 01:24 | 51.32571 | -47.57329 | 37160 ft | 505 kts | 76° |
| 2026-05-07 01:24 | 51.33919 | -47.46319 | 37170 ft | 504 kts | 76° |
| 2026-05-07 01:25 | 51.35247 | -47.35383 | 37163 ft | 504 kts | 76° |
| 2026-05-07 01:25 | 51.36574 | -47.24366 | 37167 ft | 504 kts | 76° |
| 2026-05-07 01:26 | 51.37890 | -47.13343 | 37167 ft | 504 kts | 76° |
| 2026-05-07 01:26 | 51.39195 | -47.02320 | 37161 ft | 504 kts | 76° |
| 2026-05-07 01:27 | 51.40481 | -46.91369 | 37160 ft | 504 kts | 76° |
| 2026-05-07 01:27 | 51.41765 | -46.80337 | 37164 ft | 504 kts | 76° |
| 2026-05-07 01:28 | 51.43038 | -46.69305 | 37172 ft | 503 kts | 77° |
| 2026-05-07 01:28 | 51.44300 | -46.58272 | 37169 ft | 503 kts | 77° |
| 2026-05-07 01:29 | 51.45544 | -46.47298 | 37171 ft | 503 kts | 77° |
| 2026-05-07 01:29 | 51.46785 | -46.36255 | 37173 ft | 503 kts | 77° |
| 2026-05-07 01:30 | 51.48016 | -46.25206 | 37176 ft | 503 kts | 77° |
| 2026-05-07 01:30 | 51.49238 | -46.14142 | 37173 ft | 503 kts | 77° |
| 2026-05-07 01:31 | 51.50449 | -46.03072 | 37177 ft | 503 kts | 77° |
| 2026-05-07 01:31 | 51.51640 | -45.92079 | 37175 ft | 503 kts | 77° |
| 2026-05-07 01:32 | 51.52830 | -45.80998 | 37175 ft | 503 kts | 77° |
| 2026-05-07 01:32 | 51.54009 | -45.69926 | 37179 ft | 503 kts | 77° |
| 2026-05-07 01:33 | 51.55176 | -45.58846 | 37180 ft | 503 kts | 77° |
| 2026-05-07 01:33 | 51.56325 | -45.47845 | 37178 ft | 502 kts | 77° |
| 2026-05-07 01:34 | 51.57469 | -45.36781 | 37180 ft | 502 kts | 77° |
| 2026-05-07 01:34 | 51.58603 | -45.25715 | 37179 ft | 501 kts | 77° |
| 2026-05-07 01:35 | 51.59726 | -45.14646 | 37181 ft | 501 kts | 77° |
| 2026-05-07 01:35 | 51.60828 | -45.03676 | 37184 ft | 500 kts | 77° |
| 2026-05-07 01:36 | 51.61928 | -44.92621 | 37184 ft | 500 kts | 77° |
| 2026-05-07 01:36 | 51.63015 | -44.81580 | 37187 ft | 500 kts | 77° |
| 2026-05-07 01:37 | 51.64092 | -44.70532 | 37185 ft | 499 kts | 77° |
| 2026-05-07 01:37 | 51.65150 | -44.59572 | 37185 ft | 499 kts | 77° |
| 2026-05-07 01:38 | 51.66204 | -44.48538 | 37186 ft | 498 kts | 77° |
| 2026-05-07 01:38 | 51.67248 | -44.37501 | 37192 ft | 498 kts | 78° |
| 2026-05-07 01:39 | 51.68282 | -44.26453 | 37194 ft | 499 kts | 78° |
| 2026-05-07 01:39 | 51.69306 | -44.15408 | 37192 ft | 499 kts | 78° |
| 2026-05-07 01:40 | 51.70312 | -44.04425 | 37197 ft | 499 kts | 78° |
| 2026-05-07 01:40 | 51.71316 | -43.93357 | 37197 ft | 499 kts | 78° |
| 2026-05-07 01:41 | 51.72309 | -43.82285 | 37196 ft | 499 kts | 78° |
| 2026-05-07 01:41 | 51.73284 | -43.71290 | 37196 ft | 499 kts | 78° |
| 2026-05-07 01:42 | 51.74255 | -43.60221 | 37196 ft | 498 kts | 78° |
| 2026-05-07 01:42 | 51.75216 | -43.49140 | 37198 ft | 498 kts | 78° |
| 2026-05-07 01:43 | 51.76165 | -43.38073 | 37199 ft | 498 kts | 78° |
| 2026-05-07 01:43 | 51.77104 | -43.26992 | 37199 ft | 498 kts | 78° |
| 2026-05-07 01:44 | 51.78024 | -43.16010 | 37202 ft | 497 kts | 78° |
| 2026-05-07 01:44 | 51.78941 | -43.04946 | 37208 ft | 497 kts | 78° |
| 2026-05-07 01:45 | 51.79846 | -42.93884 | 37201 ft | 496 kts | 78° |
| 2026-05-07 01:45 | 51.80740 | -42.82832 | 37198 ft | 496 kts | 78° |
| 2026-05-07 01:46 | 51.81618 | -42.71849 | 37204 ft | 496 kts | 78° |
| 2026-05-07 01:46 | 51.82491 | -42.60795 | 37209 ft | 496 kts | 78° |
| 2026-05-07 01:47 | 51.83354 | -42.49734 | 37209 ft | 496 kts | 78° |
| 2026-05-07 01:47 | 51.84208 | -42.38652 | 37206 ft | 497 kts | 78° |
| 2026-05-07 01:48 | 51.85051 | -42.27573 | 37215 ft | 497 kts | 78° |
| 2026-05-07 01:48 | 51.85880 | -42.16544 | 37212 ft | 497 kts | 78° |
| 2026-05-07 01:49 | 51.86704 | -42.05435 | 37214 ft | 498 kts | 78° |
| 2026-05-07 01:49 | 51.87519 | -41.94301 | 37211 ft | 498 kts | 78° |
| 2026-05-07 01:50 | 51.88318 | -41.83224 | 37214 ft | 499 kts | 78° |
| 2026-05-07 01:50 | 51.89112 | -41.72077 | 37214 ft | 499 kts | 78° |
| 2026-05-07 01:51 | 51.89897 | -41.60917 | 37211 ft | 499 kts | 78° |
| 2026-05-07 01:51 | 51.90670 | -41.49760 | 37216 ft | 498 kts | 78° |
| 2026-05-07 01:52 | 51.91428 | -41.38678 | 37217 ft | 498 kts | 78° |
| 2026-05-07 01:52 | 51.92178 | -41.27542 | 37212 ft | 497 kts | 79° |
| 2026-05-07 01:53 | 51.92917 | -41.16416 | 37212 ft | 496 kts | 79° |
| 2026-05-07 01:53 | 51.93644 | -41.05309 | 37211 ft | 496 kts | 79° |
| 2026-05-07 01:54 | 51.94356 | -40.94273 | 37213 ft | 495 kts | 79° |
| 2026-05-07 01:54 | 51.95060 | -40.83195 | 37212 ft | 494 kts | 79° |
| 2026-05-07 01:55 | 51.95752 | -40.72125 | 37217 ft | 493 kts | 79° |
| 2026-05-07 01:55 | 51.96434 | -40.61060 | 37216 ft | 493 kts | 79° |
| 2026-05-07 01:56 | 51.97099 | -40.50087 | 37217 ft | 492 kts | 79° |
| 2026-05-07 01:56 | 51.97757 | -40.39063 | 37219 ft | 491 kts | 79° |
| 2026-05-07 01:57 | 51.98404 | -40.28048 | 37221 ft | 490 kts | 79° |
| 2026-05-07 01:57 | 51.99040 | -40.17048 | 37220 ft | 490 kts | 79° |
| 2026-05-07 01:58 | 51.99666 | -40.06040 | 37215 ft | 489 kts | 79° |
| 2026-05-07 01:58 | 52.00706 | -39.95288 | 37212 ft | 483 kts | 72° |
| 2026-05-07 01:59 | 52.02192 | -39.84652 | 37217 ft | 483 kts | 71° |
| 2026-05-07 01:59 | 52.03712 | -39.74157 | 37221 ft | 483 kts | 71° |
| 2026-05-07 02:00 | 52.05237 | -39.63542 | 37219 ft | 483 kts | 71° |
| 2026-05-07 02:00 | 52.06735 | -39.52982 | 37218 ft | 483 kts | 72° |
| 2026-05-07 02:01 | 52.08229 | -39.42334 | 37216 ft | 483 kts | 72° |
| 2026-05-07 02:01 | 52.09714 | -39.31676 | 37217 ft | 484 kts | 72° |
| 2026-05-07 02:02 | 52.11194 | -39.20977 | 37213 ft | 485 kts | 72° |
| 2026-05-07 02:02 | 52.12657 | -39.10330 | 37213 ft | 486 kts | 72° |
| 2026-05-07 02:03 | 52.14124 | -38.99578 | 37214 ft | 487 kts | 72° |
| 2026-05-07 02:03 | 52.15579 | -38.88828 | 37208 ft | 487 kts | 72° |
| 2026-05-07 02:04 | 52.17031 | -38.78024 | 37215 ft | 488 kts | 72° |
| 2026-05-07 02:04 | 52.18465 | -38.67275 | 37207 ft | 489 kts | 72° |
| 2026-05-07 02:05 | 52.19899 | -38.56438 | 37208 ft | 490 kts | 72° |
| 2026-05-07 02:05 | 52.21326 | -38.45577 | 37198 ft | 490 kts | 72° |
| 2026-05-07 02:06 | 52.22745 | -38.34697 | 37193 ft | 491 kts | 72° |
| 2026-05-07 02:06 | 52.24155 | -38.23796 | 37193 ft | 491 kts | 72° |
| 2026-05-07 02:07 | 52.25545 | -38.12960 | 37201 ft | 491 kts | 72° |
| 2026-05-07 02:07 | 52.27625 | -37.96593 | 37195 ft | 491 kts | 72° |
| 2026-05-07 02:08 | 52.29001 | -37.85663 | 37195 ft | 491 kts | 73° |
| 2026-05-07 02:08 | 52.30368 | -37.74730 | 37194 ft | 491 kts | 73° |
| 2026-05-07 02:09 | 52.31715 | -37.63859 | 37191 ft | 491 kts | 73° |
| 2026-05-07 02:09 | 52.33059 | -37.52927 | 37189 ft | 491 kts | 73° |
| 2026-05-07 02:10 | 52.34395 | -37.41961 | 37190 ft | 491 kts | 73° |
| 2026-05-07 02:10 | 52.35718 | -37.31012 | 37189 ft | 491 kts | 73° |
| 2026-05-07 02:11 | 52.36811 | -37.21892 | 37186 ft | 491 kts | 73° |
| 2026-05-07 02:11 | 52.38328 | -37.09142 | 37182 ft | 491 kts | 73° |
| 2026-05-07 02:12 | 52.39621 | -36.98172 | 37179 ft | 491 kts | 73° |
| 2026-05-07 02:12 | 52.40687 | -36.89051 | 37177 ft | 491 kts | 73° |
| 2026-05-07 02:13 | 52.41962 | -36.78067 | 37174 ft | 491 kts | 73° |
| 2026-05-07 02:13 | 52.43430 | -36.65306 | 37178 ft | 490 kts | 73° |
| 2026-05-07 02:14 | 52.44682 | -36.54317 | 37175 ft | 490 kts | 74° |
| 2026-05-07 02:14 | 52.45714 | -36.45184 | 37173 ft | 490 kts | 74° |
| 2026-05-07 02:15 | 52.47144 | -36.32423 | 37171 ft | 489 kts | 74° |
| 2026-05-07 02:15 | 52.48165 | -36.23226 | 37169 ft | 489 kts | 74° |
| 2026-05-07 02:16 | 52.49366 | -36.12321 | 37169 ft | 489 kts | 74° |
| 2026-05-07 02:16 | 52.50563 | -36.01354 | 37165 ft | 488 kts | 74° |
| 2026-05-07 02:17 | 52.51751 | -35.90375 | 37167 ft | 488 kts | 75° |
| 2026-05-07 02:17 | 52.53116 | -35.77630 | 37165 ft | 488 kts | 75° |
| 2026-05-07 02:18 | 52.54084 | -35.68505 | 37161 ft | 488 kts | 75° |
| 2026-05-07 02:18 | 52.55239 | -35.57536 | 37154 ft | 487 kts | 75° |
| 2026-05-07 02:19 | 52.56384 | -35.46557 | 37151 ft | 487 kts | 75° |
| 2026-05-07 02:19 | 52.57518 | -35.35575 | 37155 ft | 487 kts | 75° |
| 2026-05-07 02:20 | 52.58641 | -35.24602 | 37148 ft | 487 kts | 75° |
| 2026-05-07 02:20 | 52.59745 | -35.13701 | 37147 ft | 487 kts | 75° |
| 2026-05-07 02:21 | 52.60848 | -35.02718 | 37145 ft | 486 kts | 75° |
| 2026-05-07 02:21 | 52.61939 | -34.91738 | 37148 ft | 486 kts | 76° |
| 2026-05-07 02:22 | 52.63013 | -34.80827 | 37139 ft | 486 kts | 76° |
| 2026-05-07 02:22 | 52.64082 | -34.69852 | 37142 ft | 486 kts | 76° |
| 2026-05-07 02:23 | 52.65142 | -34.58863 | 37133 ft | 486 kts | 76° |
| 2026-05-07 02:23 | 52.66192 | -34.47871 | 37132 ft | 486 kts | 76° |
| 2026-05-07 02:24 | 52.67231 | -34.36882 | 37129 ft | 485 kts | 76° |
| 2026-05-07 02:24 | 52.68260 | -34.25884 | 37132 ft | 486 kts | 76° |
| 2026-05-07 02:25 | 52.69271 | -34.14966 | 37132 ft | 485 kts | 76° |
| 2026-05-07 02:25 | 52.70279 | -34.03970 | 37133 ft | 485 kts | 76° |
| 2026-05-07 02:26 | 52.71277 | -33.92962 | 37121 ft | 485 kts | 76° |
| 2026-05-07 02:26 | 52.72264 | -33.81960 | 37133 ft | 485 kts | 77° |
| 2026-05-07 02:27 | 52.73234 | -33.71022 | 37117 ft | 485 kts | 77° |
| 2026-05-07 02:27 | 52.74202 | -33.60003 | 37114 ft | 485 kts | 77° |
| 2026-05-07 02:28 | 52.75157 | -33.48995 | 37114 ft | 485 kts | 77° |
| 2026-05-07 02:28 | 52.76104 | -33.37965 | 37112 ft | 485 kts | 77° |
| 2026-05-07 02:29 | 52.77034 | -33.27010 | 37112 ft | 485 kts | 77° |
| 2026-05-07 02:29 | 52.77961 | -33.15973 | 37115 ft | 485 kts | 77° |
| 2026-05-07 02:30 | 52.78877 | -33.04930 | 37114 ft | 485 kts | 77° |
| 2026-05-07 02:30 | 52.79783 | -32.93882 | 37107 ft | 486 kts | 77° |
| 2026-05-07 02:31 | 52.80680 | -32.82819 | 37104 ft | 486 kts | 78° |
| 2026-05-07 02:31 | 52.81560 | -32.71823 | 37107 ft | 486 kts | 78° |
| 2026-05-07 02:32 | 52.82436 | -32.60751 | 37105 ft | 486 kts | 78° |
| 2026-05-07 02:32 | 52.83303 | -32.49667 | 37102 ft | 486 kts | 78° |
| 2026-05-07 02:33 | 52.84158 | -32.38582 | 37102 ft | 486 kts | 78° |
| 2026-05-07 02:33 | 52.84998 | -32.27563 | 37096 ft | 486 kts | 78° |
| 2026-05-07 02:34 | 52.85834 | -32.16464 | 37099 ft | 486 kts | 78° |
| 2026-05-07 02:34 | 52.86660 | -32.05351 | 37098 ft | 486 kts | 78° |
| 2026-05-07 02:35 | 52.87475 | -31.94233 | 37095 ft | 487 kts | 78° |
| 2026-05-07 02:35 | 52.88281 | -31.83108 | 37093 ft | 487 kts | 79° |
| 2026-05-07 02:36 | 52.89071 | -31.72046 | 37089 ft | 487 kts | 79° |
| 2026-05-07 02:36 | 52.89857 | -31.60904 | 37090 ft | 487 kts | 79° |
| 2026-05-07 02:37 | 52.90633 | -31.49741 | 37088 ft | 488 kts | 79° |
| 2026-05-07 02:37 | 52.91392 | -31.38651 | 37084 ft | 488 kts | 79° |
| 2026-05-07 02:38 | 52.92148 | -31.27466 | 37085 ft | 488 kts | 79° |
| 2026-05-07 02:38 | 52.92894 | -31.16284 | 37086 ft | 489 kts | 79° |
| 2026-05-07 02:39 | 52.93631 | -31.05080 | 37079 ft | 489 kts | 79° |
| 2026-05-07 02:39 | 52.94356 | -30.93878 | 37081 ft | 489 kts | 80° |
| 2026-05-07 02:40 | 52.95068 | -30.82727 | 37078 ft | 489 kts | 80° |
| 2026-05-07 02:40 | 52.95773 | -30.71503 | 37077 ft | 490 kts | 80° |
| 2026-05-07 02:41 | 52.96468 | -30.60259 | 37076 ft | 490 kts | 80° |
| 2026-05-07 02:41 | 52.97152 | -30.49013 | 37075 ft | 490 kts | 80° |
| 2026-05-07 02:42 | 52.97822 | -30.37823 | 37076 ft | 491 kts | 81° |
| 2026-05-07 02:42 | 52.98486 | -30.26558 | 37075 ft | 491 kts | 81° |
| 2026-05-07 02:43 | 52.99140 | -30.15271 | 37076 ft | 491 kts | 81° |
| 2026-05-07 02:43 | 52.99784 | -30.03975 | 37072 ft | 492 kts | 81° |
| 2026-05-07 02:44 | 53.00380 | -29.92732 | 37072 ft | 493 kts | 82° |
| 2026-05-07 02:44 | 53.00824 | -29.81378 | 37060 ft | 493 kts | 83° |
| 2026-05-07 02:45 | 53.01242 | -29.70000 | 37065 ft | 494 kts | 83° |
| 2026-05-07 02:45 | 53.01673 | -29.58621 | 37070 ft | 494 kts | 83° |
| 2026-05-07 02:46 | 53.02106 | -29.47236 | 37064 ft | 494 kts | 83° |
| 2026-05-07 02:46 | 53.02528 | -29.35916 | 37056 ft | 494 kts | 83° |
| 2026-05-07 02:47 | 53.02941 | -29.24517 | 37061 ft | 495 kts | 83° |
| 2026-05-07 02:47 | 53.03342 | -29.13110 | 37063 ft | 495 kts | 83° |
| 2026-05-07 02:48 | 53.03733 | -29.01675 | 37061 ft | 495 kts | 83° |
| 2026-05-07 02:48 | 53.04111 | -28.90319 | 37057 ft | 496 kts | 84° |
| 2026-05-07 02:49 | 53.04480 | -28.78883 | 37057 ft | 496 kts | 84° |
| 2026-05-07 02:49 | 53.04839 | -28.67436 | 37059 ft | 496 kts | 84° |
| 2026-05-07 02:50 | 53.05187 | -28.55980 | 37054 ft | 496 kts | 84° |
| 2026-05-07 02:50 | 53.05524 | -28.44515 | 37052 ft | 497 kts | 84° |
| 2026-05-07 02:51 | 53.05848 | -28.33121 | 37055 ft | 497 kts | 84° |
| 2026-05-07 02:51 | 53.06164 | -28.21633 | 37055 ft | 498 kts | 84° |
| 2026-05-07 02:52 | 53.06468 | -28.10149 | 37052 ft | 498 kts | 85° |
| 2026-05-07 02:52 | 53.06760 | -27.98716 | 37052 ft | 498 kts | 85° |
| 2026-05-07 02:53 | 53.07043 | -27.87207 | 37052 ft | 498 kts | 85° |
| 2026-05-07 02:53 | 53.07315 | -27.75691 | 37049 ft | 499 kts | 85° |
| 2026-05-07 02:54 | 53.07576 | -27.64159 | 37049 ft | 499 kts | 85° |
| 2026-05-07 02:54 | 53.07826 | -27.52623 | 37049 ft | 500 kts | 85° |
| 2026-05-07 02:55 | 53.08064 | -27.41152 | 37044 ft | 500 kts | 86° |
| 2026-05-07 02:55 | 53.08292 | -27.29588 | 37043 ft | 500 kts | 86° |
| 2026-05-07 02:56 | 53.08509 | -27.18022 | 37044 ft | 501 kts | 86° |
| 2026-05-07 02:56 | 53.08715 | -27.06436 | 37040 ft | 501 kts | 86° |
| 2026-05-07 02:57 | 53.08910 | -26.94843 | 37041 ft | 502 kts | 86° |
| 2026-05-07 02:57 | 53.09093 | -26.83309 | 37044 ft | 502 kts | 86° |
| 2026-05-07 02:58 | 53.09266 | -26.71686 | 37031 ft | 503 kts | 86° |
| 2026-05-07 02:58 | 53.09428 | -26.60054 | 37043 ft | 503 kts | 86° |
| 2026-05-07 02:59 | 53.09577 | -26.48477 | 37040 ft | 504 kts | 87° |
| 2026-05-07 02:59 | 53.09716 | -26.36820 | 37040 ft | 505 kts | 87° |
| 2026-05-07 03:00 | 53.09846 | -26.25138 | 37036 ft | 505 kts | 87° |
| 2026-05-07 03:00 | 53.09963 | -26.13448 | 37031 ft | 506 kts | 87° |
| 2026-05-07 03:01 | 53.10069 | -26.01753 | 37035 ft | 506 kts | 88° |
| 2026-05-07 03:01 | 53.10161 | -25.90113 | 37034 ft | 507 kts | 88° |
| 2026-05-07 03:02 | 53.10244 | -25.78386 | 37029 ft | 507 kts | 88° |
| 2026-05-07 03:02 | 53.10315 | -25.66637 | 37030 ft | 508 kts | 88° |
| 2026-05-07 03:03 | 53.10376 | -25.54893 | 37029 ft | 508 kts | 88° |
| 2026-05-07 03:03 | 53.10424 | -25.43224 | 37027 ft | 508 kts | 88° |
| 2026-05-07 03:04 | 53.10461 | -25.31457 | 37026 ft | 508 kts | 88° |
| 2026-05-07 03:04 | 53.10485 | -25.19699 | 37027 ft | 509 kts | 89° |
| 2026-05-07 03:05 | 53.10499 | -25.07922 | 37027 ft | 509 kts | 89° |
| 2026-05-07 03:05 | 53.10501 | -24.96208 | 37020 ft | 510 kts | 89° |
| 2026-05-07 03:06 | 53.10491 | -24.84406 | 37023 ft | 510 kts | 89° |
| 2026-05-07 03:06 | 53.10470 | -24.72616 | 37023 ft | 510 kts | 89° |
| 2026-05-07 03:07 | 53.10437 | -24.60802 | 37015 ft | 510 kts | 89° |
| 2026-05-07 03:07 | 53.10393 | -24.48992 | 37017 ft | 511 kts | 89° |
| 2026-05-07 03:08 | 53.10337 | -24.37260 | 37011 ft | 511 kts | 90° |
| 2026-05-07 03:08 | 53.10269 | -24.25441 | 37015 ft | 511 kts | 90° |
| 2026-05-07 03:09 | 53.10189 | -24.13615 | 37008 ft | 511 kts | 90° |
| 2026-05-07 03:09 | 53.10097 | -24.01792 | 37011 ft | 511 kts | 90° |
| 2026-05-07 03:10 | 53.09994 | -23.89956 | 37007 ft | 511 kts | 90° |
| 2026-05-07 03:10 | 53.09880 | -23.78204 | 37007 ft | 512 kts | 90° |
| 2026-05-07 03:11 | 53.09754 | -23.66373 | 37005 ft | 512 kts | 91° |
| 2026-05-07 03:11 | 53.09615 | -23.54543 | 37004 ft | 512 kts | 91° |
| 2026-05-07 03:12 | 53.09465 | -23.42704 | 37003 ft | 512 kts | 91° |
| 2026-05-07 03:12 | 53.09304 | -23.30941 | 37002 ft | 512 kts | 91° |
| 2026-05-07 03:13 | 53.09131 | -23.19108 | 36999 ft | 512 kts | 91° |
| 2026-05-07 03:13 | 53.08946 | -23.07272 | 36994 ft | 512 kts | 91° |
| 2026-05-07 03:14 | 53.08748 | -22.95430 | 36996 ft | 512 kts | 92° |
| 2026-05-07 03:15 | 53.08433 | -22.77760 | 36997 ft | 512 kts | 92° |
| 2026-05-07 03:15 | 53.08206 | -22.65938 | 36994 ft | 512 kts | 92° |
| 2026-05-07 03:16 | 53.07968 | -22.54111 | 36991 ft | 512 kts | 92° |
| 2026-05-07 03:16 | 53.07718 | -22.42271 | 36992 ft | 512 kts | 92° |
| 2026-05-07 03:17 | 53.07459 | -22.30512 | 36992 ft | 512 kts | 92° |
| 2026-05-07 03:17 | 53.07185 | -22.18672 | 36990 ft | 513 kts | 93° |
| 2026-05-07 03:18 | 53.06900 | -22.06813 | 36987 ft | 513 kts | 93° |
| 2026-05-07 03:18 | 53.06602 | -21.94952 | 36983 ft | 514 kts | 93° |
| 2026-05-07 03:19 | 53.06292 | -21.83086 | 36981 ft | 513 kts | 93° |
| 2026-05-07 03:19 | 53.05974 | -21.71319 | 36983 ft | 513 kts | 94° |
| 2026-05-07 03:20 | 53.05641 | -21.59462 | 36982 ft | 513 kts | 94° |
| 2026-05-07 03:20 | 53.05296 | -21.47615 | 36984 ft | 513 kts | 94° |
| 2026-05-07 03:21 | 53.04940 | -21.35768 | 36984 ft | 513 kts | 94° |
| 2026-05-07 03:21 | 53.04574 | -21.24000 | 36977 ft | 513 kts | 94° |
| 2026-05-07 03:22 | 53.04194 | -21.12162 | 36975 ft | 513 kts | 94° |
| 2026-05-07 03:22 | 53.03803 | -21.00331 | 36977 ft | 513 kts | 94° |
| 2026-05-07 03:23 | 53.03400 | -20.88493 | 36976 ft | 513 kts | 94° |
| 2026-05-07 03:23 | 53.02988 | -20.76739 | 36973 ft | 513 kts | 95° |
| 2026-05-07 03:24 | 53.02561 | -20.64905 | 36970 ft | 513 kts | 95° |
| 2026-05-07 03:24 | 53.02122 | -20.53069 | 36968 ft | 513 kts | 95° |
| 2026-05-07 03:25 | 53.01672 | -20.41241 | 36968 ft | 513 kts | 95° |
| 2026-05-07 03:25 | 53.01210 | -20.29409 | 36968 ft | 513 kts | 95° |
| 2026-05-07 03:26 | 53.00740 | -20.17666 | 36965 ft | 513 kts | 95° |
| 2026-05-07 03:26 | 53.00254 | -20.05832 | 36967 ft | 513 kts | 95° |
| 2026-05-07 03:27 | 52.98991 | -19.94237 | 36961 ft | 510 kts | 107° |
| 2026-05-07 03:27 | 52.97067 | -19.82922 | 36962 ft | 509 kts | 108° |
| 2026-05-07 03:28 | 52.95057 | -19.71737 | 36959 ft | 509 kts | 109° |
| 2026-05-07 03:28 | 52.93029 | -19.60484 | 36955 ft | 509 kts | 109° |
| 2026-05-07 03:29 | 52.91010 | -19.49251 | 36956 ft | 509 kts | 109° |
| 2026-05-07 03:29 | 52.88985 | -19.38019 | 36955 ft | 508 kts | 109° |
| 2026-05-07 03:30 | 52.86968 | -19.26893 | 36953 ft | 508 kts | 109° |
| 2026-05-07 03:30 | 52.84926 | -19.15702 | 36951 ft | 508 kts | 109° |
| 2026-05-07 03:31 | 52.82877 | -19.04541 | 36952 ft | 507 kts | 109° |
| 2026-05-07 03:31 | 52.80817 | -18.93395 | 36947 ft | 507 kts | 109° |
| 2026-05-07 03:32 | 52.78750 | -18.82272 | 36943 ft | 506 kts | 109° |
| 2026-05-07 03:32 | 52.76687 | -18.71239 | 36943 ft | 506 kts | 109° |
| 2026-05-07 03:33 | 52.74602 | -18.60152 | 36942 ft | 506 kts | 110° |
| 2026-05-07 03:33 | 52.72505 | -18.49069 | 36950 ft | 506 kts | 110° |
| 2026-05-07 03:34 | 52.70400 | -18.38006 | 36942 ft | 505 kts | 110° |
| 2026-05-07 03:34 | 52.68285 | -18.26960 | 36939 ft | 505 kts | 110° |
| 2026-05-07 03:35 | 52.66176 | -18.16008 | 36937 ft | 505 kts | 110° |
| 2026-05-07 03:35 | 52.64042 | -18.04982 | 36937 ft | 505 kts | 110° |
| 2026-05-07 03:36 | 52.61900 | -17.93989 | 36936 ft | 505 kts | 110° |
| 2026-05-07 03:36 | 52.59746 | -17.82992 | 36939 ft | 505 kts | 110° |
| 2026-05-07 03:37 | 52.57585 | -17.72023 | 36939 ft | 505 kts | 110° |
| 2026-05-07 03:37 | 52.55426 | -17.61126 | 36935 ft | 505 kts | 111° |
| 2026-05-07 03:38 | 52.53243 | -17.50169 | 36932 ft | 505 kts | 111° |
| 2026-05-07 03:38 | 52.51052 | -17.39231 | 36946 ft | 505 kts | 111° |
| 2026-05-07 03:39 | 52.48850 | -17.28301 | 36945 ft | 504 kts | 111° |
| 2026-05-07 03:39 | 52.46653 | -17.17459 | 36932 ft | 504 kts | 111° |
| 2026-05-07 03:40 | 52.44433 | -17.06562 | 36933 ft | 504 kts | 111° |
| 2026-05-07 03:40 | 52.42206 | -16.95688 | 36933 ft | 503 kts | 111° |
| 2026-05-07 03:41 | 52.39970 | -16.84832 | 36938 ft | 503 kts | 111° |
| 2026-05-07 03:41 | 52.37726 | -16.73994 | 36929 ft | 502 kts | 111° |
| 2026-05-07 03:42 | 52.35490 | -16.63254 | 36931 ft | 502 kts | 111° |
| 2026-05-07 03:42 | 52.33230 | -16.52459 | 36931 ft | 501 kts | 111° |
| 2026-05-07 03:43 | 52.30964 | -16.41694 | 36930 ft | 501 kts | 111° |
| 2026-05-07 03:43 | 52.28704 | -16.31011 | 36929 ft | 500 kts | 111° |
| 2026-05-07 03:44 | 52.26423 | -16.20286 | 36933 ft | 500 kts | 111° |
| 2026-05-07 03:44 | 52.24132 | -16.09575 | 36932 ft | 500 kts | 112° |
| 2026-05-07 03:45 | 52.21836 | -15.98893 | 36932 ft | 499 kts | 112° |
| 2026-05-07 03:45 | 52.19530 | -15.88222 | 36934 ft | 499 kts | 112° |
| 2026-05-07 03:46 | 52.17231 | -15.77636 | 36932 ft | 499 kts | 112° |
| 2026-05-07 03:46 | 52.14908 | -15.66996 | 36936 ft | 498 kts | 112° |
| 2026-05-07 03:47 | 52.12576 | -15.56369 | 36932 ft | 498 kts | 112° |
| 2026-05-07 03:47 | 52.10236 | -15.45764 | 36932 ft | 498 kts | 112° |
| 2026-05-07 03:48 | 52.07888 | -15.35174 | 36930 ft | 498 kts | 112° |
| 2026-05-07 03:48 | 52.05547 | -15.24668 | 36931 ft | 497 kts | 112° |
| 2026-05-07 03:49 | 52.03183 | -15.14112 | 36927 ft | 497 kts | 112° |
| 2026-05-07 03:49 | 52.00903 | -15.03527 | 36932 ft | 498 kts | 107° |
| 2026-05-07 03:50 | 52.00021 | -14.92364 | 36936 ft | 501 kts | 93° |
| 2026-05-07 03:50 | 51.99989 | -14.81121 | 36931 ft | 502 kts | 91° |
| 2026-05-07 03:51 | 52.00062 | -14.69803 | 36930 ft | 502 kts | 91° |
| 2026-05-07 03:51 | 52.00108 | -14.58482 | 36931 ft | 501 kts | 91° |
| 2026-05-07 03:52 | 52.00118 | -14.47183 | 36929 ft | 501 kts | 91° |
| 2026-05-07 03:52 | 52.00108 | -14.35970 | 36928 ft | 500 kts | 91° |
| 2026-05-07 03:53 | 52.00088 | -14.24693 | 36935 ft | 499 kts | 91° |
| 2026-05-07 03:53 | 52.00058 | -14.13422 | 36927 ft | 499 kts | 91° |
| 2026-05-07 03:54 | 51.99888 | -14.02187 | 36929 ft | 498 kts | 98° |
| 2026-05-07 03:54 | 51.98363 | -13.91301 | 36937 ft | 494 kts | 108° |
| 2026-05-07 03:55 | 51.96330 | -13.80649 | 36927 ft | 494 kts | 109° |
| 2026-05-07 03:55 | 51.94240 | -13.70123 | 36928 ft | 494 kts | 109° |
| 2026-05-07 03:56 | 51.92143 | -13.59526 | 36939 ft | 494 kts | 109° |
| 2026-05-07 03:56 | 51.90051 | -13.48923 | 36933 ft | 494 kts | 109° |
| 2026-05-07 03:57 | 51.87956 | -13.38325 | 36938 ft | 494 kts | 109° |
| 2026-05-07 03:57 | 51.85864 | -13.27810 | 36939 ft | 494 kts | 109° |
| 2026-05-07 03:58 | 51.83748 | -13.17231 | 36936 ft | 494 kts | 109° |
| 2026-05-07 03:58 | 51.81622 | -13.06657 | 36947 ft | 495 kts | 109° |
| 2026-05-07 03:59 | 51.79486 | -12.96105 | 36948 ft | 494 kts | 109° |
| 2026-05-07 03:59 | 51.77357 | -12.85632 | 36946 ft | 494 kts | 109° |
| 2026-05-07 04:00 | 51.75204 | -12.75105 | 36943 ft | 493 kts | 109° |
| 2026-05-07 04:00 | 51.73046 | -12.64617 | 36954 ft | 492 kts | 109° |
| 2026-05-07 04:01 | 51.70882 | -12.54148 | 36953 ft | 492 kts | 109° |
| 2026-05-07 04:01 | 51.68712 | -12.43702 | 36947 ft | 491 kts | 109° |
| 2026-05-07 04:02 | 51.66554 | -12.33358 | 36946 ft | 490 kts | 109° |
| 2026-05-07 04:02 | 51.64372 | -12.22955 | 36970 ft | 490 kts | 109° |
| 2026-05-07 04:03 | 51.62183 | -12.12585 | 36964 ft | 489 kts | 109° |
| 2026-05-07 04:03 | 51.60001 | -12.02294 | 36954 ft | 489 kts | 109° |
| 2026-05-07 04:04 | 51.57801 | -11.91970 | 36958 ft | 488 kts | 109° |
| 2026-05-07 04:04 | 51.55588 | -11.81641 | 36959 ft | 488 kts | 109° |
| 2026-05-07 04:05 | 51.53369 | -11.71333 | 36970 ft | 488 kts | 109° |
| 2026-05-07 04:05 | 51.51144 | -11.61045 | 36971 ft | 488 kts | 109° |
| 2026-05-07 04:06 | 51.48909 | -11.50766 | 36958 ft | 488 kts | 109° |
| 2026-05-07 04:06 | 51.46680 | -11.40566 | 36964 ft | 488 kts | 109° |
| 2026-05-07 04:07 | 51.44430 | -11.30317 | 36966 ft | 488 kts | 110° |
| 2026-05-07 04:07 | 51.42168 | -11.20070 | 36973 ft | 488 kts | 110° |
| 2026-05-07 04:08 | 51.39896 | -11.09829 | 36982 ft | 487 kts | 110° |
| 2026-05-07 04:08 | 51.37633 | -10.99675 | 36981 ft | 487 kts | 110° |
| 2026-05-07 04:09 | 51.35349 | -10.89475 | 36978 ft | 487 kts | 110° |
| 2026-05-07 04:09 | 51.33052 | -10.79272 | 36964 ft | 488 kts | 110° |
| 2026-05-07 04:10 | 51.30761 | -10.69140 | 36970 ft | 487 kts | 110° |
| 2026-05-07 04:10 | 51.28448 | -10.58961 | 36964 ft | 487 kts | 110° |
| 2026-05-07 04:11 | 51.26126 | -10.48795 | 36983 ft | 487 kts | 110° |
| 2026-05-07 04:11 | 51.23795 | -10.38633 | 36982 ft | 487 kts | 110° |
| 2026-05-07 04:12 | 51.21455 | -10.28483 | 36986 ft | 488 kts | 110° |
| 2026-05-07 04:12 | 51.19120 | -10.18403 | 36963 ft | 488 kts | 110° |
| 2026-05-07 04:13 | 51.16761 | -10.08267 | 36982 ft | 488 kts | 110° |
| 2026-05-07 04:13 | 51.14389 | -9.98126 | 36981 ft | 488 kts | 110° |
| 2026-05-07 04:14 | 51.12009 | -9.87994 | 36982 ft | 489 kts | 110° |
| 2026-05-07 04:14 | 51.09637 | -9.77945 | 36982 ft | 489 kts | 111° |
| 2026-05-07 04:15 | 51.07237 | -9.67823 | 36979 ft | 489 kts | 111° |
| 2026-05-07 04:15 | 51.04830 | -9.57722 | 36983 ft | 489 kts | 111° |
| 2026-05-07 04:16 | 51.02410 | -9.47613 | 36980 ft | 489 kts | 111° |
| 2026-05-07 04:16 | 50.99981 | -9.37512 | 36983 ft | 490 kts | 111° |
| 2026-05-07 04:17 | 50.97560 | -9.27492 | 36982 ft | 490 kts | 111° |
| 2026-05-07 04:17 | 50.95109 | -9.17392 | 36980 ft | 491 kts | 111° |
| 2026-05-07 04:18 | 50.92649 | -9.07302 | 36982 ft | 491 kts | 111° |
| 2026-05-07 04:18 | 50.90177 | -8.97214 | 36985 ft | 491 kts | 111° |
| 2026-05-07 04:19 | 50.87714 | -8.87204 | 36983 ft | 492 kts | 111° |
| 2026-05-07 04:19 | 50.85222 | -8.77120 | 36985 ft | 492 kts | 111° |
| 2026-05-07 04:20 | 50.82718 | -8.67037 | 36983 ft | 493 kts | 112° |
| 2026-05-07 04:20 | 50.80205 | -8.56962 | 36983 ft | 493 kts | 112° |
| 2026-05-07 04:21 | 50.76435 | -8.41934 | 36985 ft | 493 kts | 112° |
| 2026-05-07 04:21 | 50.73899 | -8.31881 | 36986 ft | 493 kts | 112° |
| 2026-05-07 04:22 | 50.71355 | -8.21844 | 36982 ft | 493 kts | 112° |
| 2026-05-07 04:22 | 50.68804 | -8.11822 | 36985 ft | 493 kts | 112° |
| 2026-05-07 04:23 | 50.66238 | -8.01786 | 36985 ft | 493 kts | 112° |
| 2026-05-07 04:23 | 50.63645 | -7.91864 | 36984 ft | 493 kts | 113° |
| 2026-05-07 04:24 | 50.60937 | -7.81942 | 36985 ft | 493 kts | 114° |
| 2026-05-07 04:24 | 50.58216 | -7.72021 | 36984 ft | 494 kts | 114° |
| 2026-05-07 04:25 | 50.55500 | -7.62094 | 36984 ft | 494 kts | 114° |
| 2026-05-07 04:25 | 50.52798 | -7.52232 | 36984 ft | 494 kts | 114° |
| 2026-05-07 04:26 | 50.50072 | -7.42316 | 36986 ft | 494 kts | 114° |
| 2026-05-07 04:26 | 50.47339 | -7.32421 | 36987 ft | 495 kts | 114° |
| 2026-05-07 04:27 | 50.44591 | -7.22514 | 36987 ft | 495 kts | 114° |
| 2026-05-07 04:27 | 50.41834 | -7.12621 | 36988 ft | 495 kts | 114° |
| 2026-05-07 04:28 | 50.39088 | -7.02807 | 36988 ft | 495 kts | 114° |
| 2026-05-07 04:28 | 50.36311 | -6.92921 | 36988 ft | 496 kts | 114° |
| 2026-05-07 04:29 | 50.33526 | -6.83050 | 36990 ft | 496 kts | 114° |
| 2026-05-07 04:29 | 50.30734 | -6.73192 | 36994 ft | 496 kts | 114° |
| 2026-05-07 04:30 | 50.27949 | -6.63402 | 36989 ft | 496 kts | 114° |
| 2026-05-07 04:30 | 50.25163 | -6.53650 | 36994 ft | 496 kts | 114° |
| 2026-05-07 04:31 | 50.22342 | -6.43816 | 36993 ft | 497 kts | 114° |
| 2026-05-07 04:31 | 50.19509 | -6.33976 | 36995 ft | 497 kts | 114° |
| 2026-05-07 04:32 | 50.16684 | -6.24209 | 36996 ft | 497 kts | 115° |
| 2026-05-07 04:32 | 50.13831 | -6.14384 | 36996 ft | 498 kts | 115° |
| 2026-05-07 04:33 | 50.10966 | -6.04559 | 36999 ft | 498 kts | 115° |
| 2026-05-07 04:33 | 50.08091 | -5.94739 | 37000 ft | 498 kts | 115° |
| 2026-05-07 04:34 | 50.05229 | -5.85003 | 36998 ft | 498 kts | 115° |
| 2026-05-07 04:34 | 50.02342 | -5.75221 | 37003 ft | 498 kts | 115° |
| 2026-05-07 04:35 | 49.99442 | -5.65436 | 36999 ft | 498 kts | 115° |
| 2026-05-07 04:35 | 49.96540 | -5.55680 | 36999 ft | 498 kts | 115° |
| 2026-05-07 04:36 | 49.93632 | -5.45946 | 36997 ft | 498 kts | 115° |
| 2026-05-07 04:36 | 49.90709 | -5.36200 | 36996 ft | 498 kts | 115° |
| 2026-05-07 04:37 | 49.87799 | -5.26537 | 36999 ft | 498 kts | 115° |
| 2026-05-07 04:37 | 49.84863 | -5.16827 | 37000 ft | 498 kts | 115° |
| 2026-05-07 04:38 | 49.81918 | -5.07125 | 37003 ft | 498 kts | 115° |
| 2026-05-07 04:38 | 49.78964 | -4.97431 | 37007 ft | 498 kts | 115° |
| 2026-05-07 04:39 | 49.76026 | -4.87828 | 37009 ft | 498 kts | 115° |
| 2026-05-07 04:39 | 49.73053 | -4.78147 | 37008 ft | 498 kts | 115° |
| 2026-05-07 04:40 | 49.70075 | -4.68490 | 37006 ft | 498 kts | 115° |
| 2026-05-07 04:40 | 49.67087 | -4.58840 | 37007 ft | 498 kts | 116° |
| 2026-05-07 04:41 | 49.64112 | -4.49265 | 37012 ft | 498 kts | 116° |
| 2026-05-07 04:41 | 49.61117 | -4.39652 | 37007 ft | 497 kts | 116° |
| 2026-05-07 04:42 | 49.58598 | -4.29731 | 37010 ft | 498 kts | 105° |
| 2026-05-07 04:42 | 49.56912 | -4.19369 | 37008 ft | 499 kts | 104° |
| 2026-05-07 04:43 | 49.55361 | -4.09028 | 37009 ft | 499 kts | 103° |
| 2026-05-07 04:43 | 49.53793 | -3.98623 | 37007 ft | 499 kts | 104° |
| 2026-05-07 04:44 | 49.52194 | -3.88209 | 37009 ft | 500 kts | 104° |
| 2026-05-07 04:44 | 49.50578 | -3.77807 | 37007 ft | 500 kts | 104° |
| 2026-05-07 04:45 | 49.49240 | -3.69261 | 37005 ft | 500 kts | 104° |
| 2026-05-07 04:45 | 49.47339 | -3.57187 | 37007 ft | 500 kts | 104° |
| 2026-05-07 04:46 | 49.45696 | -3.46814 | 37005 ft | 500 kts | 104° |
| 2026-05-07 04:46 | 49.44039 | -3.36422 | 37009 ft | 500 kts | 104° |
| 2026-05-07 04:47 | 49.42374 | -3.26044 | 37011 ft | 500 kts | 104° |
| 2026-05-07 04:47 | 49.40711 | -3.15742 | 37013 ft | 500 kts | 104° |
| 2026-05-07 04:48 | 49.39027 | -3.05377 | 37014 ft | 500 kts | 104° |
| 2026-05-07 04:48 | 49.37621 | -2.96767 | 37015 ft | 501 kts | 105° |
| 2026-05-07 04:49 | 49.35920 | -2.86413 | 37017 ft | 501 kts | 105° |
| 2026-05-07 04:49 | 49.33931 | -2.74386 | 37022 ft | 501 kts | 105° |
| 2026-05-07 04:50 | 49.32210 | -2.64050 | 37018 ft | 501 kts | 105° |
| 2026-05-07 04:50 | 49.30478 | -2.53708 | 37018 ft | 501 kts | 105° |
| 2026-05-07 04:51 | 49.29031 | -2.45111 | 37018 ft | 501 kts | 105° |
| 2026-05-07 04:51 | 49.27281 | -2.34780 | 37022 ft | 501 kts | 105° |
| 2026-05-07 04:52 | 49.25234 | -2.22770 | 37020 ft | 501 kts | 105° |
| 2026-05-07 04:52 | 49.23754 | -2.14131 | 37021 ft | 501 kts | 105° |
| 2026-05-07 04:53 | 49.22139 | -2.03821 | 37019 ft | 502 kts | 98° |
| 2026-05-07 04:53 | 49.21220 | -1.93244 | 37021 ft | 502 kts | 97° |
| 2026-05-07 04:54 | 49.20414 | -1.82632 | 37021 ft | 502 kts | 97° |
| 2026-05-07 04:54 | 49.19612 | -1.72029 | 37022 ft | 502 kts | 97° |
| 2026-05-07 04:55 | 49.18792 | -1.61481 | 37027 ft | 502 kts | 97° |
| 2026-05-07 04:55 | 49.17952 | -1.50889 | 37032 ft | 502 kts | 97° |
| 2026-05-07 04:56 | 49.17099 | -1.40294 | 37031 ft | 502 kts | 97° |
| 2026-05-07 04:56 | 49.16238 | -1.29709 | 37033 ft | 502 kts | 97° |
| 2026-05-07 04:57 | 49.15372 | -1.19196 | 37037 ft | 502 kts | 97° |
| 2026-05-07 04:57 | 49.14493 | -1.08626 | 37040 ft | 502 kts | 97° |
| 2026-05-07 04:58 | 49.13603 | -0.98053 | 37040 ft | 502 kts | 97° |
| 2026-05-07 04:58 | 49.12703 | -0.87478 | 37046 ft | 502 kts | 98° |
| 2026-05-07 04:59 | 49.11794 | -0.76911 | 37048 ft | 502 kts | 98° |
| 2026-05-07 04:59 | 49.10881 | -0.66415 | 37046 ft | 502 kts | 98° |
| 2026-05-07 05:00 | 49.09953 | -0.55859 | 37048 ft | 502 kts | 98° |
| 2026-05-07 05:00 | 49.09016 | -0.45320 | 37048 ft | 502 kts | 98° |
| 2026-05-07 05:01 | 49.07661 | -0.34870 | 37050 ft | 502 kts | 104° |
| 2026-05-07 05:01 | 49.05980 | -0.24537 | 37050 ft | 502 kts | 104° |
| 2026-05-07 05:02 | 49.04353 | -0.14284 | 37043 ft | 502 kts | 104° |
| 2026-05-07 05:02 | 49.03556 | -0.09085 | 37202 ft | 503 kts | 103° |
| 2026-05-07 05:02 | 49.02773 | -0.03912 | 37515 ft | 501 kts | 103° |
| 2026-05-07 05:03 | 49.01992 | 0.01267 | 37813 ft | 501 kts | 103° |
| 2026-05-07 05:03 | 49.01212 | 0.06433 | 38067 ft | 500 kts | 103° |
| 2026-05-07 05:03 | 49.00430 | 0.11596 | 38332 ft | 500 kts | 103° |
| 2026-05-07 05:03 | 48.99645 | 0.16756 | 38562 ft | 500 kts | 104° |
| 2026-05-07 05:04 | 48.98858 | 0.21907 | 38780 ft | 500 kts | 104° |
| 2026-05-07 05:04 | 48.98075 | 0.27008 | 38956 ft | 500 kts | 104° |
| 2026-05-07 05:04 | 48.96481 | 0.37336 | 39044 ft | 501 kts | 104° |
| 2026-05-07 05:05 | 48.94879 | 0.47653 | 39046 ft | 501 kts | 104° |
| 2026-05-07 05:05 | 48.93265 | 0.57975 | 39046 ft | 501 kts | 104° |
| 2026-05-07 05:06 | 48.91575 | 0.68252 | 39043 ft | 501 kts | 105° |
| 2026-05-07 05:06 | 48.89861 | 0.78434 | 39038 ft | 501 kts | 105° |
| 2026-05-07 05:07 | 48.88136 | 0.88700 | 39034 ft | 501 kts | 105° |
| 2026-05-07 05:07 | 48.86411 | 0.98960 | 39046 ft | 501 kts | 105° |
| 2026-05-07 05:08 | 48.84679 | 1.09214 | 39043 ft | 501 kts | 105° |
| 2026-05-07 05:08 | 48.82949 | 1.19395 | 39045 ft | 502 kts | 105° |
| 2026-05-07 05:09 | 48.81197 | 1.29640 | 39044 ft | 502 kts | 105° |
| 2026-05-07 05:09 | 48.79437 | 1.39873 | 39042 ft | 502 kts | 105° |
| 2026-05-07 05:10 | 48.77666 | 1.50109 | 39035 ft | 502 kts | 105° |
| 2026-05-07 05:10 | 48.75887 | 1.60335 | 39031 ft | 502 kts | 105° |
| 2026-05-07 05:11 | 48.74110 | 1.70488 | 39030 ft | 502 kts | 105° |
| 2026-05-07 05:11 | 48.72310 | 1.80714 | 39027 ft | 502 kts | 105° |
| 2026-05-07 05:12 | 48.70502 | 1.90925 | 39023 ft | 502 kts | 105° |
| 2026-05-07 05:12 | 48.68685 | 2.01136 | 39018 ft | 502 kts | 105° |
| 2026-05-07 05:13 | 48.66869 | 2.11273 | 39020 ft | 503 kts | 106° |
| 2026-05-07 05:13 | 48.65034 | 2.21463 | 39023 ft | 503 kts | 106° |
| 2026-05-07 05:14 | 48.63187 | 2.31667 | 39022 ft | 502 kts | 106° |
| 2026-05-07 05:14 | 48.61334 | 2.41843 | 39021 ft | 502 kts | 106° |
| 2026-05-07 05:15 | 48.59471 | 2.52018 | 39020 ft | 502 kts | 106° |
| 2026-05-07 05:15 | 48.57612 | 2.62113 | 39020 ft | 502 kts | 106° |
| 2026-05-07 05:16 | 48.55768 | 2.72286 | 39019 ft | 503 kts | 103° |
| 2026-05-07 05:16 | 48.54952 | 2.82755 | 39018 ft | 503 kts | 94° |
| 2026-05-07 05:17 | 48.54578 | 2.93299 | 39021 ft | 503 kts | 93° |
| 2026-05-07 05:17 | 48.54255 | 3.03783 | 39019 ft | 503 kts | 93° |
| 2026-05-07 05:18 | 48.53909 | 3.14330 | 39018 ft | 503 kts | 93° |
| 2026-05-07 05:18 | 48.53538 | 3.24880 | 39020 ft | 503 kts | 93° |
| 2026-05-07 05:19 | 48.53152 | 3.35425 | 39012 ft | 504 kts | 94° |
| 2026-05-07 05:19 | 48.52758 | 3.45908 | 39012 ft | 504 kts | 94° |
| 2026-05-07 05:20 | 48.52353 | 3.56449 | 39014 ft | 503 kts | 94° |
| 2026-05-07 05:20 | 48.51938 | 3.66992 | 39014 ft | 504 kts | 94° |
| 2026-05-07 05:21 | 48.51299 | 3.82808 | 39012 ft | 503 kts | 94° |
| 2026-05-07 05:22 | 48.50863 | 3.93271 | 39009 ft | 503 kts | 94° |
| 2026-05-07 05:22 | 48.50108 | 4.03753 | 39006 ft | 503 kts | 104° |
| 2026-05-07 05:23 | 48.48404 | 4.13963 | 39011 ft | 502 kts | 106° |
| 2026-05-07 05:23 | 48.46542 | 4.24095 | 39006 ft | 502 kts | 106° |
| 2026-05-07 05:24 | 48.44667 | 4.34165 | 39007 ft | 502 kts | 106° |
| 2026-05-07 05:24 | 48.42788 | 4.44292 | 39002 ft | 502 kts | 106° |
| 2026-05-07 05:25 | 48.40910 | 4.54411 | 39004 ft | 502 kts | 106° |
| 2026-05-07 05:25 | 48.39024 | 4.64536 | 39016 ft | 502 kts | 106° |
| 2026-05-07 05:26 | 48.37129 | 4.74645 | 39003 ft | 502 kts | 107° |
| 2026-05-07 05:26 | 48.35238 | 4.84680 | 39015 ft | 502 kts | 107° |
| 2026-05-07 05:27 | 48.33326 | 4.94765 | 39012 ft | 502 kts | 107° |
| 2026-05-07 05:27 | 48.31403 | 5.04857 | 38994 ft | 502 kts | 107° |
| 2026-05-07 05:28 | 48.29473 | 5.14935 | 39001 ft | 502 kts | 107° |
| 2026-05-07 05:28 | 48.27769 | 5.25030 | 38996 ft | 502 kts | 103° |
| 2026-05-07 05:29 | 48.26345 | 5.35302 | 38997 ft | 503 kts | 102° |
| 2026-05-07 05:29 | 48.24895 | 5.45557 | 38996 ft | 503 kts | 103° |
| 2026-05-07 05:30 | 48.23378 | 5.55793 | 38994 ft | 503 kts | 103° |
| 2026-05-07 05:30 | 48.21839 | 5.65948 | 38993 ft | 503 kts | 104° |
| 2026-05-07 05:31 | 48.20277 | 5.76173 | 38990 ft | 503 kts | 104° |
| 2026-05-07 05:31 | 48.18709 | 5.86390 | 38995 ft | 503 kts | 104° |
| 2026-05-07 05:32 | 48.17132 | 5.96609 | 38996 ft | 503 kts | 104° |
| 2026-05-07 05:32 | 48.15546 | 6.06826 | 38992 ft | 504 kts | 104° |
| 2026-05-07 05:33 | 48.13961 | 6.16973 | 38996 ft | 504 kts | 104° |
| 2026-05-07 05:33 | 48.12355 | 6.27187 | 38987 ft | 504 kts | 104° |
| 2026-05-07 05:34 | 48.10740 | 6.37392 | 38986 ft | 504 kts | 104° |
| 2026-05-07 05:34 | 48.09114 | 6.47606 | 38993 ft | 505 kts | 104° |
| 2026-05-07 05:35 | 48.07491 | 6.57741 | 38994 ft | 505 kts | 105° |
| 2026-05-07 05:35 | 48.05847 | 6.67942 | 38995 ft | 505 kts | 105° |
| 2026-05-07 05:36 | 48.04192 | 6.78147 | 38994 ft | 505 kts | 105° |
| 2026-05-07 05:36 | 48.02529 | 6.88344 | 38995 ft | 505 kts | 105° |
| 2026-05-07 05:37 | 48.00867 | 6.98465 | 38995 ft | 505 kts | 105° |
| 2026-05-07 05:37 | 47.99187 | 7.08641 | 38995 ft | 505 kts | 105° |
| 2026-05-07 05:38 | 47.97497 | 7.18814 | 38991 ft | 505 kts | 105° |
| 2026-05-07 05:38 | 47.95797 | 7.28991 | 38993 ft | 505 kts | 105° |
| 2026-05-07 05:39 | 47.94086 | 7.39169 | 38995 ft | 506 kts | 105° |
| 2026-05-07 05:39 | 47.92365 | 7.49343 | 38993 ft | 506 kts | 105° |
| 2026-05-07 05:40 | 47.90515 | 7.59377 | 38998 ft | 504 kts | 111° |
| 2026-05-07 05:40 | 47.88125 | 7.69196 | 38999 ft | 504 kts | 112° |
| 2026-05-07 05:41 | 47.85644 | 7.78958 | 39003 ft | 504 kts | 112° |
| 2026-05-07 05:41 | 47.83146 | 7.88712 | 39002 ft | 504 kts | 112° |
| 2026-05-07 05:42 | 47.80666 | 7.98397 | 38999 ft | 504 kts | 112° |
| 2026-05-07 05:42 | 47.78166 | 8.08131 | 38998 ft | 504 kts | 112° |
| 2026-05-07 05:43 | 47.75698 | 8.17715 | 38995 ft | 504 kts | 113° |
| 2026-05-07 05:43 | 47.73182 | 8.27437 | 38999 ft | 504 kts | 113° |
| 2026-05-07 05:44 | 47.70674 | 8.37090 | 38997 ft | 504 kts | 113° |
| 2026-05-07 05:44 | 47.68157 | 8.46797 | 39005 ft | 505 kts | 112° |
| 2026-05-07 05:45 | 47.65899 | 8.56668 | 39004 ft | 505 kts | 110° |
| 2026-05-07 05:45 | 47.63734 | 8.66586 | 39015 ft | 505 kts | 110° |
| 2026-05-07 05:46 | 47.61541 | 8.76405 | 39006 ft | 505 kts | 110° |
| 2026-05-07 05:46 | 47.59294 | 8.86253 | 38998 ft | 505 kts | 111° |
| 2026-05-07 05:47 | 47.57028 | 8.96096 | 39000 ft | 505 kts | 111° |
| 2026-05-07 05:47 | 47.54753 | 9.05934 | 38991 ft | 505 kts | 111° |
| 2026-05-07 05:48 | 47.52491 | 9.15682 | 38986 ft | 505 kts | 111° |
| 2026-05-07 05:48 | 47.50198 | 9.25521 | 38999 ft | 505 kts | 111° |
| 2026-05-07 05:49 | 47.47899 | 9.35342 | 38981 ft | 505 kts | 111° |
| 2026-05-07 05:49 | 47.45592 | 9.45153 | 38995 ft | 505 kts | 111° |
| 2026-05-07 05:50 | 47.43282 | 9.54934 | 38995 ft | 505 kts | 112° |
| 2026-05-07 05:50 | 47.41042 | 9.64710 | 38990 ft | 507 kts | 107° |
| 2026-05-07 05:51 | 47.39486 | 9.74870 | 38996 ft | 508 kts | 104° |
| 2026-05-07 05:51 | 47.38086 | 9.84962 | 38991 ft | 508 kts | 104° |
| 2026-05-07 05:52 | 47.36680 | 9.95181 | 38998 ft | 508 kts | 104° |
| 2026-05-07 05:52 | 47.35266 | 10.05313 | 38997 ft | 508 kts | 104° |
| 2026-05-07 05:53 | 47.33823 | 10.15514 | 38993 ft | 508 kts | 104° |
| 2026-05-07 05:53 | 47.32385 | 10.25607 | 38983 ft | 508 kts | 104° |
| 2026-05-07 05:54 | 47.30921 | 10.35802 | 38996 ft | 510 kts | 105° |
| 2026-05-07 05:54 | 47.29446 | 10.46009 | 38989 ft | 509 kts | 105° |
| 2026-05-07 05:55 | 47.27972 | 10.56142 | 38987 ft | 509 kts | 105° |
| 2026-05-07 05:55 | 47.26482 | 10.66337 | 38985 ft | 509 kts | 105° |
| 2026-05-07 05:56 | 47.24979 | 10.76529 | 38987 ft | 509 kts | 105° |
| 2026-05-07 05:56 | 47.23469 | 10.86710 | 38982 ft | 509 kts | 105° |
| 2026-05-07 05:57 | 47.21951 | 10.96884 | 38975 ft | 509 kts | 105° |
| 2026-05-07 05:57 | 47.20435 | 11.06970 | 38988 ft | 509 kts | 105° |
| 2026-05-07 05:58 | 47.18899 | 11.17127 | 38991 ft | 509 kts | 106° |
| 2026-05-07 05:58 | 47.17355 | 11.27265 | 38992 ft | 508 kts | 106° |
| 2026-05-07 05:59 | 47.15802 | 11.37407 | 38990 ft | 508 kts | 106° |
| 2026-05-07 05:59 | 47.14251 | 11.47465 | 38990 ft | 509 kts | 106° |
| 2026-05-07 06:00 | 47.12680 | 11.57593 | 38985 ft | 509 kts | 106° |
| 2026-05-07 06:00 | 47.11098 | 11.67728 | 38976 ft | 509 kts | 106° |
| 2026-05-07 06:01 | 47.09509 | 11.77852 | 38976 ft | 509 kts | 107° |
| 2026-05-07 06:01 | 47.07652 | 11.87771 | 38966 ft | 505 kts | 116° |
| 2026-05-07 06:02 | 47.04760 | 11.97087 | 38974 ft | 502 kts | 120° |
| 2026-05-07 06:02 | 47.01677 | 12.06264 | 38977 ft | 502 kts | 121° |
| 2026-05-07 06:03 | 46.98568 | 12.15425 | 38989 ft | 502 kts | 121° |
| 2026-05-07 06:03 | 46.95484 | 12.24537 | 38996 ft | 503 kts | 120° |
| 2026-05-07 06:04 | 46.92384 | 12.33704 | 38996 ft | 503 kts | 121° |
| 2026-05-07 06:04 | 46.89275 | 12.42868 | 38999 ft | 503 kts | 121° |
| 2026-05-07 06:05 | 46.86159 | 12.52020 | 38998 ft | 503 kts | 121° |
| 2026-05-07 06:05 | 46.83034 | 12.61167 | 38988 ft | 503 kts | 121° |
| 2026-05-07 06:06 | 46.79927 | 12.70225 | 38993 ft | 503 kts | 121° |
| 2026-05-07 06:06 | 46.76790 | 12.79341 | 38985 ft | 502 kts | 121° |
| 2026-05-07 06:07 | 46.73646 | 12.88446 | 38980 ft | 503 kts | 121° |
| 2026-05-07 06:07 | 46.70496 | 12.97535 | 38975 ft | 503 kts | 121° |
| 2026-05-07 06:08 | 46.67338 | 13.06619 | 38972 ft | 502 kts | 121° |
| 2026-05-07 06:08 | 46.64205 | 13.15599 | 38971 ft | 501 kts | 121° |
| 2026-05-07 06:09 | 46.61042 | 13.24631 | 38967 ft | 501 kts | 121° |
| 2026-05-07 06:09 | 46.57869 | 13.33653 | 38970 ft | 500 kts | 121° |
| 2026-05-07 06:10 | 46.53981 | 13.41890 | 38968 ft | 492 kts | 134° |
| 2026-05-07 06:10 | 46.49568 | 13.49382 | 38966 ft | 491 kts | 136° |
| 2026-05-07 06:11 | 46.45042 | 13.56820 | 38966 ft | 491 kts | 136° |
| 2026-05-07 06:11 | 46.40524 | 13.64239 | 38967 ft | 491 kts | 136° |
| 2026-05-07 06:12 | 46.36008 | 13.71672 | 38966 ft | 491 kts | 136° |
| 2026-05-07 06:12 | 46.31526 | 13.79047 | 38967 ft | 491 kts | 136° |
| 2026-05-07 06:13 | 46.27011 | 13.86458 | 38959 ft | 491 kts | 136° |
| 2026-05-07 06:13 | 46.22489 | 13.93856 | 38980 ft | 492 kts | 136° |
| 2026-05-07 06:14 | 46.18207 | 14.00848 | 38971 ft | 491 kts | 136° |
| 2026-05-07 06:14 | 46.13679 | 14.08217 | 38978 ft | 491 kts | 136° |
| 2026-05-07 06:15 | 46.09149 | 14.15568 | 38981 ft | 490 kts | 136° |
| 2026-05-07 06:15 | 46.04616 | 14.22907 | 38980 ft | 490 kts | 136° |
| 2026-05-07 06:16 | 46.00086 | 14.30222 | 38982 ft | 490 kts | 136° |
| 2026-05-07 06:16 | 45.95574 | 14.37487 | 38983 ft | 490 kts | 137° |
| 2026-05-07 06:17 | 45.91022 | 14.44797 | 38981 ft | 491 kts | 137° |
| 2026-05-07 06:17 | 45.86469 | 14.52091 | 38979 ft | 491 kts | 137° |
| 2026-05-07 06:18 | 45.81907 | 14.59379 | 38978 ft | 491 kts | 137° |
| 2026-05-07 06:18 | 45.77368 | 14.66611 | 38979 ft | 491 kts | 137° |
| 2026-05-07 06:19 | 45.72796 | 14.73877 | 38981 ft | 491 kts | 137° |
| 2026-05-07 06:19 | 45.68223 | 14.81126 | 38981 ft | 490 kts | 137° |
| 2026-05-07 06:20 | 45.63650 | 14.88356 | 38985 ft | 490 kts | 137° |
| 2026-05-07 06:20 | 45.59105 | 14.95522 | 38979 ft | 490 kts | 137° |
| 2026-05-07 06:21 | 45.54530 | 15.02715 | 38982 ft | 490 kts | 137° |
| 2026-05-07 06:21 | 45.49950 | 15.09898 | 38982 ft | 490 kts | 138° |
| 2026-05-07 06:22 | 45.45354 | 15.17087 | 38984 ft | 491 kts | 138° |
| 2026-05-07 06:22 | 45.38479 | 15.27806 | 38983 ft | 491 kts | 138° |
| 2026-05-07 06:23 | 45.33864 | 15.34978 | 38984 ft | 492 kts | 138° |
| 2026-05-07 06:23 | 45.29242 | 15.42142 | 38984 ft | 492 kts | 138° |
| 2026-05-07 06:24 | 45.24619 | 15.49289 | 38984 ft | 492 kts | 138° |
| 2026-05-07 06:24 | 45.20020 | 15.56382 | 38985 ft | 492 kts | 138° |
| 2026-05-07 06:25 | 45.15384 | 15.63514 | 38986 ft | 492 kts | 138° |
| 2026-05-07 06:25 | 45.10744 | 15.70634 | 38985 ft | 492 kts | 138° |
| 2026-05-07 06:26 | 45.06102 | 15.77737 | 38988 ft | 492 kts | 138° |
| 2026-05-07 06:26 | 45.01485 | 15.84784 | 38989 ft | 491 kts | 138° |
| 2026-05-07 06:27 | 44.96837 | 15.91861 | 38989 ft | 492 kts | 138° |
| 2026-05-07 06:27 | 44.92177 | 15.98936 | 38990 ft | 492 kts | 138° |
| 2026-05-07 06:28 | 44.87520 | 16.05990 | 38995 ft | 491 kts | 137° |
| 2026-05-07 06:28 | 44.82893 | 16.12980 | 38993 ft | 491 kts | 138° |
| 2026-05-07 06:29 | 44.78226 | 16.20013 | 38998 ft | 491 kts | 137° |
| 2026-05-07 06:29 | 44.73555 | 16.27033 | 38999 ft | 491 kts | 137° |
| 2026-05-07 06:30 | 44.68885 | 16.34038 | 38999 ft | 491 kts | 137° |
| 2026-05-07 06:30 | 44.64244 | 16.40978 | 38999 ft | 490 kts | 137° |
| 2026-05-07 06:31 | 44.59570 | 16.47948 | 39000 ft | 490 kts | 137° |
| 2026-05-07 06:31 | 44.54898 | 16.54902 | 39005 ft | 490 kts | 137° |
| 2026-05-07 06:32 | 44.50227 | 16.61836 | 39002 ft | 489 kts | 137° |
| 2026-05-07 06:32 | 44.45584 | 16.68710 | 39008 ft | 489 kts | 137° |
| 2026-05-07 06:33 | 44.40907 | 16.75619 | 39005 ft | 489 kts | 137° |
| 2026-05-07 06:33 | 44.36231 | 16.82508 | 39007 ft | 488 kts | 137° |
| 2026-05-07 06:34 | 44.31549 | 16.89390 | 39024 ft | 488 kts | 137° |
| 2026-05-07 06:34 | 44.26900 | 16.96205 | 39028 ft | 488 kts | 137° |
| 2026-05-07 06:35 | 44.22219 | 17.03051 | 39032 ft | 487 kts | 137° |
| 2026-05-07 06:35 | 44.17537 | 17.09881 | 39036 ft | 488 kts | 137° |
| 2026-05-07 06:36 | 44.12850 | 17.16700 | 39047 ft | 488 kts | 138° |
| 2026-05-07 06:36 | 44.08189 | 17.23468 | 39042 ft | 487 kts | 138° |
| 2026-05-07 06:37 | 44.03495 | 17.30263 | 39047 ft | 487 kts | 138° |
| 2026-05-07 06:37 | 43.98798 | 17.37049 | 39049 ft | 487 kts | 138° |
| 2026-05-07 06:38 | 43.94109 | 17.43810 | 39053 ft | 486 kts | 138° |
| 2026-05-07 06:38 | 43.89414 | 17.50559 | 39055 ft | 486 kts | 138° |
| 2026-05-07 06:39 | 43.84744 | 17.57256 | 39058 ft | 486 kts | 138° |
| 2026-05-07 06:39 | 43.80051 | 17.63972 | 39070 ft | 485 kts | 138° |
| 2026-05-07 06:40 | 43.75350 | 17.70679 | 39069 ft | 485 kts | 138° |
| 2026-05-07 06:40 | 43.70681 | 17.77328 | 39080 ft | 485 kts | 138° |
| 2026-05-07 06:41 | 43.65983 | 17.84004 | 39081 ft | 485 kts | 138° |
| 2026-05-07 06:41 | 43.61285 | 17.90662 | 39090 ft | 484 kts | 138° |
| 2026-05-07 06:42 | 43.56583 | 17.97308 | 39095 ft | 484 kts | 138° |
| 2026-05-07 06:42 | 43.51884 | 18.03936 | 39095 ft | 483 kts | 138° |
| 2026-05-07 06:43 | 43.47221 | 18.10498 | 39095 ft | 482 kts | 138° |
| 2026-05-07 06:43 | 43.42527 | 18.17087 | 39102 ft | 483 kts | 138° |
| 2026-05-07 06:44 | 43.37823 | 18.23674 | 39097 ft | 482 kts | 138° |
| 2026-05-07 06:44 | 43.33120 | 18.30244 | 39102 ft | 482 kts | 139° |
| 2026-05-07 06:45 | 43.28448 | 18.36757 | 39107 ft | 481 kts | 139° |
| 2026-05-07 06:45 | 43.23746 | 18.43294 | 39104 ft | 481 kts | 139° |
| 2026-05-07 06:46 | 43.19042 | 18.49819 | 39112 ft | 481 kts | 139° |
| 2026-05-07 06:46 | 43.14339 | 18.56329 | 39116 ft | 481 kts | 139° |
| 2026-05-07 06:47 | 43.09660 | 18.62791 | 39117 ft | 481 kts | 139° |
| 2026-05-07 06:47 | 43.04945 | 18.69287 | 39112 ft | 481 kts | 139° |
| 2026-05-07 06:48 | 43.00228 | 18.75772 | 39119 ft | 481 kts | 139° |
| 2026-05-07 06:48 | 42.95505 | 18.82249 | 39117 ft | 481 kts | 139° |
| 2026-05-07 06:49 | 42.90807 | 18.88677 | 39121 ft | 482 kts | 139° |
| 2026-05-07 06:49 | 42.86069 | 18.95144 | 39122 ft | 482 kts | 139° |
| 2026-05-07 06:50 | 42.81320 | 19.01611 | 39124 ft | 483 kts | 139° |
| 2026-05-07 06:50 | 42.76561 | 19.08078 | 39130 ft | 484 kts | 139° |
| 2026-05-07 06:51 | 42.71826 | 19.14499 | 39130 ft | 484 kts | 139° |
| 2026-05-07 06:51 | 42.67042 | 19.20970 | 39137 ft | 485 kts | 139° |
| 2026-05-07 06:52 | 42.62254 | 19.27431 | 39139 ft | 486 kts | 139° |
| 2026-05-07 06:52 | 42.57454 | 19.33893 | 39141 ft | 486 kts | 139° |
| 2026-05-07 06:53 | 42.52644 | 19.40355 | 39143 ft | 488 kts | 139° |
| 2026-05-07 06:53 | 42.47846 | 19.46785 | 39144 ft | 488 kts | 139° |
| 2026-05-07 06:54 | 42.43010 | 19.53252 | 39141 ft | 489 kts | 139° |
| 2026-05-07 06:54 | 42.38153 | 19.59731 | 39141 ft | 490 kts | 139° |
| 2026-05-07 06:55 | 42.33292 | 19.66202 | 39135 ft | 491 kts | 139° |
| 2026-05-07 06:55 | 42.28450 | 19.72633 | 39134 ft | 492 kts | 139° |
| 2026-05-07 06:56 | 42.23564 | 19.79107 | 39130 ft | 492 kts | 140° |
| 2026-05-07 06:56 | 42.18671 | 19.85575 | 39135 ft | 493 kts | 140° |
| 2026-05-07 06:57 | 42.13765 | 19.92046 | 39128 ft | 493 kts | 140° |
| 2026-05-07 06:57 | 42.08888 | 19.98466 | 39132 ft | 493 kts | 140° |
| 2026-05-07 06:58 | 42.03976 | 20.04914 | 39134 ft | 493 kts | 140° |
| 2026-05-07 06:58 | 41.99064 | 20.11349 | 39132 ft | 493 kts | 140° |
| 2026-05-07 06:59 | 41.94151 | 20.17771 | 39139 ft | 492 kts | 140° |
| 2026-05-07 06:59 | 41.89269 | 20.24138 | 39138 ft | 492 kts | 140° |
| 2026-05-07 07:00 | 41.84353 | 20.30535 | 39138 ft | 492 kts | 140° |
| 2026-05-07 07:00 | 41.79439 | 20.36913 | 39138 ft | 492 kts | 140° |
| 2026-05-07 07:01 | 41.74513 | 20.43291 | 39131 ft | 492 kts | 140° |
| 2026-05-07 07:01 | 41.69582 | 20.49665 | 39166 ft | 494 kts | 141° |
| 2026-05-07 07:02 | 41.67116 | 20.52744 | 39327 ft | 492 kts | 144° |
| 2026-05-07 07:02 | 41.64476 | 20.55664 | 39515 ft | 491 kts | 146° |
| 2026-05-07 07:02 | 41.61824 | 20.58513 | 39702 ft | 490 kts | 146° |
| 2026-05-07 07:02 | 41.59141 | 20.61353 | 39848 ft | 491 kts | 146° |
| 2026-05-07 07:03 | 41.56456 | 20.64173 | 40002 ft | 491 kts | 146° |
| 2026-05-07 07:03 | 41.53770 | 20.66989 | 40195 ft | 491 kts | 146° |
| 2026-05-07 07:03 | 41.51081 | 20.69807 | 40355 ft | 492 kts | 146° |
| 2026-05-07 07:03 | 41.48386 | 20.72634 | 40514 ft | 493 kts | 146° |
| 2026-05-07 07:04 | 41.45725 | 20.75427 | 40662 ft | 493 kts | 146° |
| 2026-05-07 07:04 | 41.43030 | 20.78253 | 40836 ft | 494 kts | 146° |
| 2026-05-07 07:04 | 41.40328 | 20.81086 | 40957 ft | 494 kts | 146° |
| 2026-05-07 07:04 | 41.37622 | 20.83920 | 41105 ft | 495 kts | 146° |
| 2026-05-07 07:05 | 41.32196 | 20.89593 | 41168 ft | 496 kts | 146° |
| 2026-05-07 07:05 | 41.26769 | 20.95256 | 41167 ft | 496 kts | 146° |
| 2026-05-07 07:06 | 41.21378 | 21.00865 | 41160 ft | 496 kts | 146° |
| 2026-05-07 07:06 | 41.15939 | 21.06517 | 41150 ft | 496 kts | 146° |
| 2026-05-07 07:07 | 41.10508 | 21.12146 | 41158 ft | 496 kts | 146° |
| 2026-05-07 07:07 | 41.05063 | 21.17778 | 41140 ft | 496 kts | 146° |
| 2026-05-07 07:08 | 40.99621 | 21.23393 | 41141 ft | 496 kts | 146° |
| 2026-05-07 07:08 | 40.94207 | 21.28967 | 41127 ft | 496 kts | 146° |
| 2026-05-07 07:09 | 40.88760 | 21.34575 | 41133 ft | 497 kts | 146° |
| 2026-05-07 07:09 | 40.83572 | 21.40685 | 41137 ft | 500 kts | 141° |
| 2026-05-07 07:10 | 40.78471 | 21.46956 | 41132 ft | 501 kts | 141° |
| 2026-05-07 07:10 | 40.73422 | 21.53192 | 41127 ft | 501 kts | 141° |
| 2026-05-07 07:11 | 40.68318 | 21.59467 | 41125 ft | 502 kts | 141° |
| 2026-05-07 07:11 | 40.63201 | 21.65730 | 41126 ft | 502 kts | 141° |
| 2026-05-07 07:12 | 40.58081 | 21.71982 | 41131 ft | 503 kts | 141° |
| 2026-05-07 07:12 | 40.52984 | 21.78192 | 41137 ft | 503 kts | 141° |
| 2026-05-07 07:13 | 40.47853 | 21.84430 | 41142 ft | 503 kts | 141° |
| 2026-05-07 07:13 | 40.42703 | 21.90677 | 41147 ft | 504 kts | 141° |
| 2026-05-07 07:14 | 40.37551 | 21.96913 | 41152 ft | 504 kts | 141° |
| 2026-05-07 07:14 | 40.32426 | 22.03103 | 41147 ft | 505 kts | 141° |
| 2026-05-07 07:15 | 40.27261 | 22.09329 | 41142 ft | 505 kts | 141° |
| 2026-05-07 07:15 | 40.22087 | 22.15551 | 41132 ft | 505 kts | 141° |
| 2026-05-07 07:16 | 40.16904 | 22.21772 | 41120 ft | 506 kts | 141° |
| 2026-05-07 07:16 | 40.11717 | 22.27983 | 41112 ft | 506 kts | 141° |
| 2026-05-07 07:17 | 40.06560 | 22.34145 | 41109 ft | 507 kts | 141° |
| 2026-05-07 07:17 | 40.01353 | 22.40353 | 41111 ft | 506 kts | 141° |
| 2026-05-07 07:18 | 39.96145 | 22.46550 | 41115 ft | 507 kts | 141° |
| 2026-05-07 07:18 | 39.90969 | 22.52695 | 41108 ft | 507 kts | 141° |
| 2026-05-07 07:19 | 39.85753 | 22.58874 | 41110 ft | 507 kts | 141° |
| 2026-05-07 07:19 | 39.80534 | 22.65041 | 41104 ft | 507 kts | 141° |
| 2026-05-07 07:20 | 39.75303 | 22.71213 | 41105 ft | 507 kts | 141° |
| 2026-05-07 07:20 | 39.70070 | 22.77370 | 41104 ft | 508 kts | 141° |
| 2026-05-07 07:21 | 39.64866 | 22.83481 | 41106 ft | 508 kts | 141° |
| 2026-05-07 07:21 | 39.59619 | 22.89632 | 41106 ft | 509 kts | 141° |
| 2026-05-07 07:22 | 39.54358 | 22.95785 | 41104 ft | 509 kts | 141° |
| 2026-05-07 07:22 | 39.49092 | 23.01930 | 41105 ft | 510 kts | 141° |
| 2026-05-07 07:23 | 39.43854 | 23.08031 | 41103 ft | 510 kts | 141° |
| 2026-05-07 07:23 | 39.38578 | 23.14162 | 41107 ft | 510 kts | 141° |
| 2026-05-07 07:24 | 39.33290 | 23.20294 | 41095 ft | 511 kts | 141° |
| 2026-05-07 07:24 | 39.27996 | 23.26420 | 41088 ft | 512 kts | 141° |
| 2026-05-07 07:25 | 39.20069 | 23.35568 | 41080 ft | 512 kts | 141° |
| 2026-05-07 07:26 | 39.14748 | 23.41693 | 41077 ft | 513 kts | 141° |
| 2026-05-07 07:26 | 39.09422 | 23.47811 | 41074 ft | 513 kts | 141° |
| 2026-05-07 07:27 | 39.04090 | 23.53924 | 41080 ft | 514 kts | 141° |
| 2026-05-07 07:27 | 38.98743 | 23.60039 | 41086 ft | 514 kts | 141° |
| 2026-05-07 07:28 | 38.93431 | 23.66101 | 41092 ft | 515 kts | 141° |
| 2026-05-07 07:28 | 38.87946 | 23.72011 | 41105 ft | 514 kts | 144° |
| 2026-05-07 07:29 | 38.82379 | 23.77774 | 41113 ft | 515 kts | 144° |
| 2026-05-07 07:29 | 38.76810 | 23.83568 | 41098 ft | 516 kts | 143° |
| 2026-05-07 07:30 | 38.71292 | 23.89350 | 41106 ft | 516 kts | 143° |
| 2026-05-07 07:30 | 38.65913 | 23.94993 | 41105 ft | 517 kts | 143° |
| 2026-05-07 07:31 | 38.60336 | 24.00830 | 41107 ft | 518 kts | 143° |
| 2026-05-07 07:31 | 38.54751 | 24.06663 | 41108 ft | 519 kts | 143° |
| 2026-05-07 07:32 | 38.49197 | 24.12450 | 41108 ft | 519 kts | 143° |
| 2026-05-07 07:32 | 38.43598 | 24.18271 | 41111 ft | 519 kts | 143° |
| 2026-05-07 07:33 | 38.37995 | 24.24084 | 41111 ft | 520 kts | 143° |
| 2026-05-07 07:33 | 38.32377 | 24.29901 | 41109 ft | 521 kts | 143° |
| 2026-05-07 07:34 | 38.26784 | 24.35680 | 41116 ft | 522 kts | 143° |
| 2026-05-07 07:34 | 38.21143 | 24.41496 | 41117 ft | 522 kts | 143° |
| 2026-05-07 07:35 | 38.15499 | 24.47305 | 41117 ft | 522 kts | 143° |
| 2026-05-07 07:35 | 38.09844 | 24.53113 | 41113 ft | 523 kts | 144° |
| 2026-05-07 07:36 | 38.05145 | 24.57929 | 41120 ft | 523 kts | 144° |
| 2026-05-07 07:36 | 37.98553 | 24.64671 | 41123 ft | 524 kts | 143° |
| 2026-05-07 07:37 | 37.93794 | 24.69529 | 41125 ft | 525 kts | 144° |
| 2026-05-07 07:37 | 37.88138 | 24.75292 | 41124 ft | 526 kts | 143° |
| 2026-05-07 07:38 | 37.82436 | 24.81091 | 41127 ft | 526 kts | 144° |
| 2026-05-07 07:38 | 37.76718 | 24.86892 | 41126 ft | 527 kts | 144° |
| 2026-05-07 07:39 | 37.70991 | 24.92692 | 41132 ft | 528 kts | 144° |
| 2026-05-07 07:39 | 37.65293 | 24.98452 | 41130 ft | 529 kts | 144° |
| 2026-05-07 07:40 | 37.59536 | 25.04258 | 41129 ft | 530 kts | 144° |
| 2026-05-07 07:40 | 37.53774 | 25.10057 | 41128 ft | 530 kts | 144° |
| 2026-05-07 07:41 | 37.48000 | 25.15857 | 41132 ft | 531 kts | 144° |
| 2026-05-07 07:41 | 37.42259 | 25.21612 | 41132 ft | 532 kts | 144° |
| 2026-05-07 07:42 | 37.36469 | 25.27404 | 41129 ft | 532 kts | 144° |
| 2026-05-07 07:42 | 37.30720 | 25.33145 | 41130 ft | 533 kts | 144° |
| 2026-05-07 07:43 | 37.24890 | 25.38908 | 41131 ft | 533 kts | 146° |
| 2026-05-07 07:43 | 37.18897 | 25.44382 | 41129 ft | 533 kts | 147° |
| 2026-05-07 07:44 | 37.12904 | 25.49741 | 41128 ft | 534 kts | 147° |
| 2026-05-07 07:44 | 37.06874 | 25.55183 | 41129 ft | 534 kts | 147° |
| 2026-05-07 07:45 | 37.00849 | 25.60655 | 41133 ft | 535 kts | 147° |
| 2026-05-07 07:45 | 36.94823 | 25.66128 | 41136 ft | 536 kts | 147° |
| 2026-05-07 07:46 | 36.88772 | 25.71610 | 41138 ft | 537 kts | 147° |
| 2026-05-07 07:46 | 36.82755 | 25.77048 | 41148 ft | 538 kts | 147° |
| 2026-05-07 07:47 | 36.76677 | 25.82530 | 41146 ft | 539 kts | 147° |
| 2026-05-07 07:47 | 36.70592 | 25.88008 | 41142 ft | 540 kts | 147° |
| 2026-05-07 07:48 | 36.64492 | 25.93488 | 41151 ft | 541 kts | 147° |
| 2026-05-07 07:48 | 36.58426 | 25.98926 | 41141 ft | 542 kts | 147° |
| 2026-05-07 07:49 | 36.52305 | 26.04403 | 41143 ft | 542 kts | 147° |
| 2026-05-07 07:49 | 36.46175 | 26.09877 | 41147 ft | 543 kts | 147° |
| 2026-05-07 07:50 | 36.40034 | 26.15351 | 41152 ft | 544 kts | 147° |
| 2026-05-07 07:50 | 36.33886 | 26.20819 | 41139 ft | 544 kts | 147° |
| 2026-05-07 07:51 | 36.27768 | 26.26250 | 41140 ft | 545 kts | 147° |
| 2026-05-07 07:51 | 36.21600 | 26.31715 | 41156 ft | 545 kts | 147° |
| 2026-05-07 07:52 | 36.15431 | 26.37169 | 41155 ft | 545 kts | 147° |
| 2026-05-07 07:52 | 36.09252 | 26.42622 | 41161 ft | 546 kts | 147° |
| 2026-05-07 07:53 | 36.03112 | 26.48030 | 41144 ft | 546 kts | 147° |
| 2026-05-07 07:53 | 35.96919 | 26.53473 | 41154 ft | 546 kts | 147° |
| 2026-05-07 07:54 | 35.90715 | 26.58916 | 41154 ft | 547 kts | 147° |
| 2026-05-07 07:54 | 35.84507 | 26.64351 | 41154 ft | 548 kts | 147° |
| 2026-05-07 07:55 | 35.78328 | 26.69750 | 41155 ft | 548 kts | 147° |
| 2026-05-07 07:55 | 35.72100 | 26.75182 | 41154 ft | 549 kts | 147° |
| 2026-05-07 07:56 | 35.65872 | 26.80603 | 41153 ft | 548 kts | 147° |
| 2026-05-07 07:56 | 35.59650 | 26.86009 | 41155 ft | 548 kts | 147° |
| 2026-05-07 07:57 | 35.53431 | 26.91400 | 41155 ft | 547 kts | 147° |
| 2026-05-07 07:57 | 35.47252 | 26.96748 | 41155 ft | 547 kts | 147° |
| 2026-05-07 07:58 | 35.41031 | 27.02121 | 41157 ft | 547 kts | 147° |
| 2026-05-07 07:58 | 35.34816 | 27.07479 | 41156 ft | 546 kts | 147° |
| 2026-05-07 07:59 | 35.28605 | 27.12823 | 41157 ft | 546 kts | 146° |
| 2026-05-07 07:59 | 35.22394 | 27.18157 | 41156 ft | 545 kts | 146° |
| 2026-05-07 08:00 | 35.16228 | 27.23442 | 41153 ft | 545 kts | 146° |
| 2026-05-07 08:00 | 35.10025 | 27.28749 | 41154 ft | 544 kts | 146° |
| 2026-05-07 08:01 | 35.03822 | 27.34046 | 41155 ft | 544 kts | 146° |
| 2026-05-07 08:01 | 34.98851 | 27.38284 | 41153 ft | 544 kts | 146° |
| 2026-05-07 08:02 | 34.93431 | 27.42897 | 41159 ft | 544 kts | 146° |
| 2026-05-07 08:02 | 34.87224 | 27.48169 | 41160 ft | 544 kts | 146° |
| 2026-05-07 08:03 | 34.81015 | 27.53435 | 41161 ft | 543 kts | 146° |
| 2026-05-07 08:03 | 34.74820 | 27.58678 | 41159 ft | 542 kts | 146° |
| 2026-05-07 08:04 | 34.68627 | 27.63911 | 41160 ft | 542 kts | 146° |
| 2026-05-07 08:04 | 34.62481 | 27.69094 | 41165 ft | 541 kts | 146° |
| 2026-05-07 08:05 | 34.56293 | 27.74302 | 41164 ft | 541 kts | 146° |
| 2026-05-07 08:05 | 34.50560 | 27.80226 | 41165 ft | 542 kts | 136° |
| 2026-05-07 08:06 | 34.45198 | 27.86643 | 41165 ft | 541 kts | 135° |
| 2026-05-07 08:06 | 34.39907 | 27.93099 | 41167 ft | 540 kts | 134° |
| 2026-05-07 08:07 | 34.34593 | 27.99554 | 41166 ft | 540 kts | 135° |
| 2026-05-07 08:07 | 34.29322 | 28.05919 | 41169 ft | 539 kts | 135° |
| 2026-05-07 08:08 | 34.24009 | 28.12311 | 41167 ft | 538 kts | 135° |
| 2026-05-07 08:08 | 34.18706 | 28.18678 | 41164 ft | 537 kts | 135° |
| 2026-05-07 08:09 | 34.13404 | 28.25034 | 41166 ft | 536 kts | 135° |
| 2026-05-07 08:09 | 34.08114 | 28.31363 | 41168 ft | 535 kts | 135° |
| 2026-05-07 08:10 | 34.02865 | 28.37633 | 41173 ft | 534 kts | 135° |
| 2026-05-07 08:10 | 33.97588 | 28.43924 | 41168 ft | 533 kts | 135° |
| 2026-05-07 08:11 | 33.92316 | 28.50197 | 41170 ft | 532 kts | 135° |
| 2026-05-07 08:11 | 33.87051 | 28.56450 | 41172 ft | 531 kts | 135° |
| 2026-05-07 08:12 | 33.81828 | 28.62643 | 41171 ft | 531 kts | 135° |
| 2026-05-07 08:12 | 33.76576 | 28.68860 | 41170 ft | 530 kts | 135° |
| 2026-05-07 08:13 | 33.71324 | 28.75065 | 41168 ft | 529 kts | 135° |
| 2026-05-07 08:13 | 33.66014 | 28.81159 | 41169 ft | 528 kts | 137° |
| 2026-05-07 08:14 | 33.60625 | 28.87142 | 41170 ft | 527 kts | 137° |
| 2026-05-07 08:14 | 33.55282 | 28.93078 | 41171 ft | 527 kts | 137° |
| 2026-05-07 08:15 | 33.49919 | 28.99063 | 41174 ft | 526 kts | 137° |
| 2026-05-07 08:15 | 33.44569 | 29.05038 | 41170 ft | 526 kts | 137° |
| 2026-05-07 08:16 | 33.39220 | 29.11002 | 41175 ft | 525 kts | 137° |
| 2026-05-07 08:16 | 33.33876 | 29.16949 | 41177 ft | 524 kts | 137° |
| 2026-05-07 08:17 | 33.28572 | 29.22840 | 41176 ft | 524 kts | 137° |
| 2026-05-07 08:17 | 33.23229 | 29.28763 | 41172 ft | 523 kts | 137° |
| 2026-05-07 08:18 | 33.17893 | 29.34670 | 41173 ft | 523 kts | 137° |
| 2026-05-07 08:18 | 33.12592 | 29.40526 | 41173 ft | 522 kts | 138° |
| 2026-05-07 08:19 | 33.07260 | 29.46407 | 41175 ft | 522 kts | 138° |
| 2026-05-07 08:19 | 33.01936 | 29.52269 | 41172 ft | 521 kts | 138° |
| 2026-05-07 08:20 | 32.96600 | 29.58135 | 41174 ft | 521 kts | 138° |
| 2026-05-07 08:20 | 32.91274 | 29.63979 | 41173 ft | 521 kts | 138° |
| 2026-05-07 08:21 | 32.85984 | 29.69774 | 41171 ft | 520 kts | 138° |
| 2026-05-07 08:21 | 32.80660 | 29.75595 | 41174 ft | 520 kts | 138° |
| 2026-05-07 08:22 | 32.75337 | 29.81406 | 41173 ft | 519 kts | 138° |
| 2026-05-07 08:22 | 32.70017 | 29.87204 | 41173 ft | 519 kts | 138° |
| 2026-05-07 08:23 | 32.64739 | 29.92947 | 41173 ft | 518 kts | 139° |
| 2026-05-07 08:23 | 32.59420 | 29.98724 | 41169 ft | 518 kts | 139° |
| 2026-05-07 08:24 | 32.54108 | 30.04485 | 41169 ft | 517 kts | 139° |
| 2026-05-07 08:24 | 32.48794 | 30.10238 | 41168 ft | 517 kts | 139° |
| 2026-05-07 08:25 | 32.43515 | 30.15938 | 41166 ft | 517 kts | 139° |
| 2026-05-07 08:25 | 32.38198 | 30.21659 | 41168 ft | 516 kts | 139° |
| 2026-05-07 08:26 | 32.30231 | 30.30217 | 41169 ft | 516 kts | 139° |
| 2026-05-07 08:26 | 32.24913 | 30.35918 | 41168 ft | 516 kts | 139° |
| 2026-05-07 08:27 | 32.19607 | 30.41599 | 41161 ft | 515 kts | 139° |
| 2026-05-07 08:27 | 32.14326 | 30.47244 | 41162 ft | 515 kts | 139° |
| 2026-05-07 08:28 | 32.09018 | 30.52908 | 41122 ft | 515 kts | 139° |
| 2026-05-07 08:28 | 32.06370 | 30.55730 | 40884 ft | 514 kts | 139° |
| 2026-05-07 08:28 | 32.03706 | 30.58566 | 40637 ft | 514 kts | 139° |
| 2026-05-07 08:29 | 32.01057 | 30.61383 | 40396 ft | 514 kts | 139° |
| 2026-05-07 08:29 | 31.98404 | 30.64204 | 40159 ft | 514 kts | 139° |
| 2026-05-07 08:29 | 31.95739 | 30.67035 | 39917 ft | 514 kts | 139° |
| 2026-05-07 08:29 | 31.93079 | 30.69858 | 39674 ft | 514 kts | 139° |
| 2026-05-07 08:30 | 31.90460 | 30.72635 | 39466 ft | 514 kts | 139° |
| 2026-05-07 08:30 | 31.87808 | 30.75446 | 39239 ft | 513 kts | 139° |
| 2026-05-07 08:30 | 31.85154 | 30.78256 | 39006 ft | 513 kts | 139° |
| 2026-05-07 08:30 | 31.82504 | 30.81059 | 38770 ft | 513 kts | 139° |
| 2026-05-07 08:31 | 31.79844 | 30.83872 | 38484 ft | 513 kts | 139° |
| 2026-05-07 08:31 | 31.77200 | 30.86667 | 38201 ft | 512 kts | 139° |
| 2026-05-07 08:31 | 31.74553 | 30.89463 | 37634 ft | 510 kts | 139° |
| 2026-05-07 08:31 | 31.71908 | 30.92253 | 36786 ft | 512 kts | 139° |
| 2026-05-07 08:32 | 31.69260 | 30.95045 | 36032 ft | 512 kts | 139° |
| 2026-05-07 08:32 | 31.66643 | 30.97801 | 35313 ft | 511 kts | 139° |
| 2026-05-07 08:32 | 31.63997 | 31.00584 | 34570 ft | 511 kts | 139° |
| 2026-05-07 08:32 | 31.61348 | 31.03369 | 33734 ft | 511 kts | 139° |
| 2026-05-07 08:33 | 31.58704 | 31.06145 | 32808 ft | 511 kts | 139° |
| 2026-05-07 08:33 | 31.55966 | 31.08804 | 31929 ft | 510 kts | 145° |
| 2026-05-07 08:33 | 31.52962 | 31.10996 | 31012 ft | 509 kts | 154° |
| 2026-05-07 08:33 | 31.49700 | 31.12591 | 30063 ft | 508 kts | 163° |
| 2026-05-07 08:34 | 31.46274 | 31.13536 | 29335 ft | 502 kts | 171° |
| 2026-05-07 08:34 | 31.42863 | 31.14243 | 28731 ft | 494 kts | 172° |
| 2026-05-07 08:34 | 31.39487 | 31.14873 | 28116 ft | 489 kts | 172° |
| 2026-05-07 08:34 | 31.36185 | 31.15462 | 27493 ft | 484 kts | 172° |
| 2026-05-07 08:35 | 31.32877 | 31.16014 | 26930 ft | 478 kts | 175° |
| 2026-05-07 08:35 | 31.29596 | 31.16213 | 26622 ft | 466 kts | 181° |
| 2026-05-07 08:35 | 31.26397 | 31.16073 | 26389 ft | 454 kts | 184° |
| 2026-05-07 08:35 | 31.23282 | 31.15858 | 26127 ft | 443 kts | 185° |
| 2026-05-07 08:36 | 31.20210 | 31.15636 | 25384 ft | 445 kts | 185° |
| 2026-05-07 08:36 | 31.17081 | 31.15405 | 24357 ft | 455 kts | 185° |
| 2026-05-07 08:36 | 31.13897 | 31.15165 | 23363 ft | 462 kts | 185° |
| 2026-05-07 08:36 | 31.10687 | 31.14921 | 22556 ft | 462 kts | 185° |
| 2026-05-07 08:37 | 31.07531 | 31.14687 | 21889 ft | 458 kts | 185° |
| 2026-05-07 08:37 | 31.04367 | 31.14458 | 21212 ft | 454 kts | 185° |
| 2026-05-07 08:37 | 31.01221 | 31.14234 | 20567 ft | 450 kts | 185° |
| 2026-05-07 08:37 | 30.98108 | 31.14021 | 19916 ft | 446 kts | 185° |
| 2026-05-07 08:38 | 30.95024 | 31.13817 | 19288 ft | 443 kts | 185° |
| 2026-05-07 08:38 | 30.91955 | 31.13621 | 18671 ft | 439 kts | 185° |
| 2026-05-07 08:38 | 30.88909 | 31.13433 | 18013 ft | 436 kts | 185° |
| 2026-05-07 08:38 | 30.85934 | 31.13253 | 17356 ft | 432 kts | 185° |
| 2026-05-07 08:39 | 30.82953 | 31.13072 | 16712 ft | 427 kts | 185° |
| 2026-05-07 08:39 | 30.80008 | 31.12891 | 16091 ft | 422 kts | 185° |
| 2026-05-07 08:39 | 30.77090 | 31.12712 | 15490 ft | 417 kts | 185° |
| 2026-05-07 08:39 | 30.74212 | 31.12530 | 14908 ft | 413 kts | 185° |
| 2026-05-07 08:40 | 30.71355 | 31.12347 | 14334 ft | 408 kts | 185° |
| 2026-05-07 08:40 | 30.68535 | 31.12166 | 13732 ft | 404 kts | 185° |
| 2026-05-07 08:40 | 30.65737 | 31.11982 | 13017 ft | 401 kts | 185° |
| 2026-05-07 08:40 | 30.62962 | 31.11790 | 12274 ft | 399 kts | 185° |
| 2026-05-07 08:41 | 30.60196 | 31.11590 | 11708 ft | 394 kts | 185° |
| 2026-05-07 08:41 | 30.57546 | 31.11392 | 11450 ft | 381 kts | 185° |
| 2026-05-07 08:41 | 30.54952 | 31.11199 | 11228 ft | 367 kts | 185° |
| 2026-05-07 08:41 | 30.52445 | 31.11010 | 11022 ft | 354 kts | 185° |
| 2026-05-07 08:42 | 30.50027 | 31.10827 | 10815 ft | 342 kts | 185° |
| 2026-05-07 08:42 | 30.47697 | 31.10651 | 10674 ft | 330 kts | 185° |
| 2026-05-07 08:42 | 30.45442 | 31.10478 | 10502 ft | 319 kts | 185° |
| 2026-05-07 08:42 | 30.43253 | 31.10309 | 10245 ft | 313 kts | 185° |
| 2026-05-07 08:43 | 30.41091 | 31.10142 | 9891 ft | 310 kts | 185° |
| 2026-05-07 08:43 | 30.38943 | 31.09972 | 9499 ft | 308 kts | 185° |
| 2026-05-07 08:43 | 30.36838 | 31.09798 | 9142 ft | 306 kts | 185° |
| 2026-05-07 08:43 | 30.34726 | 31.09618 | 8763 ft | 304 kts | 184° |
| 2026-05-07 08:44 | 30.32625 | 31.09434 | 8420 ft | 302 kts | 185° |
| 2026-05-07 08:44 | 30.30538 | 31.09245 | 8101 ft | 300 kts | 185° |
| 2026-05-07 08:44 | 30.28462 | 31.09059 | 7774 ft | 298 kts | 185° |
| 2026-05-07 08:44 | 30.26396 | 31.08866 | 7404 ft | 297 kts | 185° |
| 2026-05-07 08:45 | 30.24339 | 31.08668 | 7070 ft | 296 kts | 185° |
| 2026-05-07 08:45 | 30.22298 | 31.08471 | 6751 ft | 294 kts | 184° |
| 2026-05-07 08:45 | 30.20268 | 31.08269 | 6347 ft | 293 kts | 185° |
| 2026-05-07 08:45 | 30.18270 | 31.08061 | 5990 ft | 291 kts | 185° |
| 2026-05-07 08:46 | 30.16260 | 31.07847 | 5644 ft | 289 kts | 185° |
| 2026-05-07 08:46 | 30.14266 | 31.07624 | 5354 ft | 287 kts | 184° |
| 2026-05-07 08:46 | 30.12289 | 31.07387 | 5162 ft | 284 kts | 185° |
| 2026-05-07 08:46 | 30.10327 | 31.07150 | 4809 ft | 284 kts | 185° |
| 2026-05-07 08:47 | 30.08366 | 31.06906 | 4441 ft | 283 kts | 185° |
| 2026-05-07 08:47 | 30.06417 | 31.06736 | 4132 ft | 279 kts | 177° |
| 2026-05-07 08:47 | 30.04553 | 31.07228 | 3850 ft | 273 kts | 153° |
| 2026-05-07 08:47 | 30.02904 | 31.08260 | 3503 ft | 266 kts | 145° |
| 2026-05-07 08:48 | 30.01379 | 31.09353 | 3414 ft | 257 kts | 145° |
| 2026-05-07 08:48 | 29.99898 | 31.10429 | 3352 ft | 246 kts | 146° |
| 2026-05-07 08:48 | 29.98669 | 31.11707 | 3286 ft | 232 kts | 120° |
| 2026-05-07 08:48 | 29.97992 | 31.13320 | 3279 ft | 218 kts | 107° |
| 2026-05-07 08:49 | 29.97496 | 31.14957 | 3056 ft | 216 kts | 104° |
| 2026-05-07 08:49 | 29.97268 | 31.16643 | 2891 ft | 211 kts | 82° |
| 2026-05-07 08:49 | 29.97477 | 31.18306 | 2752 ft | 209 kts | 76° |
| 2026-05-07 08:49 | 29.97773 | 31.19915 | 2674 ft | 202 kts | 75° |
| 2026-05-07 08:50 | 29.98073 | 31.21476 | 2644 ft | 198 kts | 75° |
| 2026-05-07 08:50 | 29.98360 | 31.22977 | 2525 ft | 190 kts | 75° |
| 2026-05-07 08:50 | 29.98738 | 31.24423 | 2515 ft | 187 kts | 64° |
| 2026-05-07 08:50 | 29.99418 | 31.25678 | 2504 ft | 184 kts | 50° |
| 2026-05-07 08:51 | 30.00236 | 31.26806 | 2503 ft | 183 kts | 49° |
| 2026-05-07 08:51 | 30.01041 | 31.27904 | 2488 ft | 174 kts | 48° |
| 2026-05-07 08:51 | 30.01832 | 31.28958 | 2529 ft | 173 kts | 49° |
| 2026-05-07 08:51 | 30.02605 | 31.29995 | 2512 ft | 163 kts | 48° |
| 2026-05-07 08:52 | 30.03306 | 31.30944 | 2421 ft | 150 kts | 48° |
| 2026-05-07 08:52 | 30.03992 | 31.31864 | 2164 ft | 150 kts | 47° |
| 2026-05-07 08:52 | 30.04666 | 31.32750 | 1997 ft | 145 kts | 49° |
| 2026-05-07 08:52 | 30.05301 | 31.33601 | 1777 ft | 139 kts | 47° |
| 2026-05-07 08:53 | 30.05907 | 31.34414 | 1622 ft | 132 kts | 46° |
| 2026-05-07 08:53 | 30.06492 | 31.35189 | 1451 ft | 124 kts | 47° |
| 2026-05-07 08:53 | 30.07044 | 31.35929 | 1264 ft | 122 kts | 46° |
| 2026-05-07 08:53 | 30.07608 | 31.36678 | 1108 ft | 127 kts | 48° |
| 2026-05-07 08:54 | 30.08193 | 31.37463 | 980 ft | 127 kts | 45° |
| 2026-05-07 08:54 | 30.08770 | 31.38233 | 822 ft | 130 kts | 47° |
| 2026-05-07 08:54 | 30.09377 | 31.39050 | 603 ft | 135 kts | 48° |
| 2026-05-07 08:54 | 30.09977 | 31.39842 | 414 ft | 128 kts | 47° |
| 2026-05-07 08:55 | 30.10527 | 31.40568 | 383 ft | 104 kts | 49° |
| 2026-05-07 08:55 | 30.10911 | 31.41077 | 379 ft | 64 kts | 49° |
| 2026-05-07 08:55 | 30.11131 | 31.41371 | 380 ft | 34 kts | 49° |
| 2026-05-07 08:55 | 30.11300 | 31.41543 | 380 ft | 31 kts | 30° |
| 2026-05-07 08:56 | 30.11492 | 31.41629 | 381 ft | 25 kts | 11° |
| 2026-05-07 08:56 | 30.11557 | 31.41549 | 381 ft | 15 kts | 253° |
| 2026-05-07 08:56 | 30.11484 | 31.41443 | 381 ft | 18 kts | 229° |
| 2026-05-07 08:56 | 30.11393 | 31.41322 | 381 ft | 21 kts | 229° |
| 2026-05-07 08:57 | 30.11289 | 31.41184 | 381 ft | 24 kts | 229° |
| 2026-05-07 08:57 | 30.11172 | 31.41030 | 381 ft | 27 kts | 229° |
| 2026-05-07 08:57 | 30.11044 | 31.40859 | 381 ft | 28 kts | 229° |
| 2026-05-07 08:57 | 30.10917 | 31.40690 | 381 ft | 29 kts | 229° |
| 2026-05-07 08:58 | 30.10783 | 31.40512 | 381 ft | 31 kts | 229° |
| 2026-05-07 08:58 | 30.10687 | 31.40375 | 381 ft | 18 kts | 248° |
| 2026-05-07 08:58 | 30.10703 | 31.40265 | 380 ft | 14 kts | 254° |
| 2026-05-07 08:58 | 30.10640 | 31.40166 | 380 ft | 17 kts | 229° |
| 2026-05-07 08:59 | 30.10557 | 31.40055 | 380 ft | 20 kts | 229° |
| 2026-05-07 08:59 | 30.10496 | 31.39920 | 380 ft | 18 kts | 292° |
| 2026-05-07 08:59 | 30.10602 | 31.39839 | 380 ft | 20 kts | 343° |
| 2026-05-07 08:59 | 30.10726 | 31.39801 | 380 ft | 13 kts | 346° |
| 2026-05-07 09:00 | 30.10753 | 31.39735 | 380 ft | 2 kts | 262° |
| 2026-05-07 09:00 | 30.10747 | 31.39709 | 380 ft | 2 kts | 255° |
| 2026-05-07 09:00 | 30.10746 | 31.39705 | 380 ft | 0 kts | 255° |